<?xml version="1.0" encoding="UTF-8" standalone="no" ?>
<gpx xmlns="http://www.topografix.com/GPX/1/1" xmlns:xsi="http://www.w3.org/2001/XMLSchema-instance" xsi:schemaLocation="http://www.topografix.com/GPX/1/1 http://www.topografix.com/GPX/1/1/gpx.xsd" version="1.1" creator="VisuGPX - https://www.visugpx.com">
  <metadata>
    <name>nord vercors</name>
  </metadata>
  <trk>
    <name><![CDATA[Autour d'Autrans - 10585 - UtagawaVTT.com]]></name>
    <trkseg>
      <trkpt lat="45.17676" lon="5.54045">
        <ele>1041.4</ele>
        <time>2014-08-29T07:13:17Z</time>
      </trkpt>
      <trkpt lat="45.17737" lon="5.54107">
        <ele>1046.9</ele>
        <time>2014-08-29T07:13:42Z</time>
      </trkpt>
      <trkpt lat="45.17753" lon="5.54154">
        <ele>1047.2</ele>
        <time>2014-08-29T07:13:52Z</time>
      </trkpt>
      <trkpt lat="45.17754" lon="5.54171">
        <ele>1047</ele>
        <time>2014-08-29T07:13:55Z</time>
      </trkpt>
      <trkpt lat="45.17725" lon="5.54243">
        <ele>1046.9</ele>
        <time>2014-08-29T07:14:08Z</time>
      </trkpt>
      <trkpt lat="45.17736" lon="5.54262">
        <ele>1047</ele>
        <time>2014-08-29T07:14:12Z</time>
      </trkpt>
      <trkpt lat="45.18145" lon="5.54453">
        <ele>1061.3</ele>
        <time>2014-08-29T07:16:08Z</time>
      </trkpt>
      <trkpt lat="45.18304" lon="5.54448">
        <ele>1072.7</ele>
        <time>2014-08-29T07:17:01Z</time>
      </trkpt>
      <trkpt lat="45.18317" lon="5.54456">
        <ele>1074</ele>
        <time>2014-08-29T07:17:07Z</time>
      </trkpt>
      <trkpt lat="45.1836" lon="5.54506">
        <ele>1078.9</ele>
        <time>2014-08-29T07:17:30Z</time>
      </trkpt>
      <trkpt lat="45.18406" lon="5.5454">
        <ele>1082.6</ele>
        <time>2014-08-29T07:17:50Z</time>
      </trkpt>
      <trkpt lat="45.18467" lon="5.54565">
        <ele>1088.3</ele>
        <time>2014-08-29T07:18:14Z</time>
      </trkpt>
      <trkpt lat="45.18764" lon="5.54789">
        <ele>1134.1</ele>
        <time>2014-08-29T07:20:22Z</time>
      </trkpt>
      <trkpt lat="45.18775" lon="5.54821">
        <ele>1134.2</ele>
        <time>2014-08-29T07:20:31Z</time>
      </trkpt>
      <trkpt lat="45.1877" lon="5.54892">
        <ele>1126.1</ele>
        <time>2014-08-29T07:20:48Z</time>
      </trkpt>
      <trkpt lat="45.18778" lon="5.54922">
        <ele>1126.8</ele>
        <time>2014-08-29T07:20:56Z</time>
      </trkpt>
      <trkpt lat="45.19302" lon="5.55358">
        <ele>1187.7</ele>
        <time>2014-08-29T07:24:38Z</time>
      </trkpt>
      <trkpt lat="45.19313" lon="5.55388">
        <ele>1189.7</ele>
        <time>2014-08-29T07:24:47Z</time>
      </trkpt>
      <trkpt lat="45.19315" lon="5.5545">
        <ele>1190.3</ele>
        <time>2014-08-29T07:25:03Z</time>
      </trkpt>
      <trkpt lat="45.19338" lon="5.55521">
        <ele>1192.3</ele>
        <time>2014-08-29T07:25:19Z</time>
      </trkpt>
      <trkpt lat="45.19368" lon="5.55561">
        <ele>1193.6</ele>
        <time>2014-08-29T07:25:30Z</time>
      </trkpt>
      <trkpt lat="45.19386" lon="5.55571">
        <ele>1194.2</ele>
        <time>2014-08-29T07:25:38Z</time>
      </trkpt>
      <trkpt lat="45.1939" lon="5.55577">
        <ele>1194.2</ele>
        <time>2014-08-29T07:25:43Z</time>
      </trkpt>
      <trkpt lat="45.19415" lon="5.55573">
        <ele>1195.3</ele>
        <time>2014-08-29T07:39:36Z</time>
      </trkpt>
      <trkpt lat="45.19421" lon="5.55466">
        <ele>1203.5</ele>
        <time>2014-08-29T07:40:15Z</time>
      </trkpt>
      <trkpt lat="45.19423" lon="5.5546">
        <ele>1204.8</ele>
        <time>2014-08-29T07:40:18Z</time>
      </trkpt>
      <trkpt lat="45.19434" lon="5.55458">
        <ele>1207.7</ele>
        <time>2014-08-29T07:40:24Z</time>
      </trkpt>
      <trkpt lat="45.19534" lon="5.55514">
        <ele>1220.9</ele>
        <time>2014-08-29T07:41:24Z</time>
      </trkpt>
      <trkpt lat="45.19559" lon="5.55519">
        <ele>1225.1</ele>
        <time>2014-08-29T07:41:37Z</time>
      </trkpt>
      <trkpt lat="45.19575" lon="5.55529">
        <ele>1227.4</ele>
        <time>2014-08-29T07:41:47Z</time>
      </trkpt>
      <trkpt lat="45.19604" lon="5.55538">
        <ele>1230.7</ele>
        <time>2014-08-29T07:42:04Z</time>
      </trkpt>
      <trkpt lat="45.19615" lon="5.55537">
        <ele>1231.9</ele>
        <time>2014-08-29T07:42:10Z</time>
      </trkpt>
      <trkpt lat="45.19748" lon="5.55592">
        <ele>1241.4</ele>
        <time>2014-08-29T07:43:21Z</time>
      </trkpt>
      <trkpt lat="45.19829" lon="5.5571">
        <ele>1237</ele>
        <time>2014-08-29T07:44:51Z</time>
      </trkpt>
      <trkpt lat="45.19835" lon="5.55706">
        <ele>1237.8</ele>
        <time>2014-08-29T07:44:54Z</time>
      </trkpt>
      <trkpt lat="45.19847" lon="5.55717">
        <ele>1237.2</ele>
        <time>2014-08-29T07:45:00Z</time>
      </trkpt>
      <trkpt lat="45.19862" lon="5.55722">
        <ele>1237.4</ele>
        <time>2014-08-29T07:45:06Z</time>
      </trkpt>
      <trkpt lat="45.19866" lon="5.55717">
        <ele>1238.1</ele>
        <time>2014-08-29T07:45:08Z</time>
      </trkpt>
      <trkpt lat="45.19895" lon="5.55708">
        <ele>1240.8</ele>
        <time>2014-08-29T07:50:00Z</time>
      </trkpt>
      <trkpt lat="45.1992" lon="5.5571">
        <ele>1242.1</ele>
        <time>2014-08-29T07:50:06Z</time>
      </trkpt>
      <trkpt lat="45.19955" lon="5.55696">
        <ele>1246.6</ele>
        <time>2014-08-29T07:50:15Z</time>
      </trkpt>
      <trkpt lat="45.20008" lon="5.55709">
        <ele>1249.4</ele>
        <time>2014-08-29T07:50:31Z</time>
      </trkpt>
      <trkpt lat="45.20021" lon="5.55707">
        <ele>1251.2</ele>
        <time>2014-08-29T07:50:34Z</time>
      </trkpt>
      <trkpt lat="45.20068" lon="5.55719">
        <ele>1255.3</ele>
        <time>2014-08-29T07:50:48Z</time>
      </trkpt>
      <trkpt lat="45.20081" lon="5.5573">
        <ele>1255.3</ele>
        <time>2014-08-29T07:50:53Z</time>
      </trkpt>
      <trkpt lat="45.20131" lon="5.55749">
        <ele>1258.2</ele>
        <time>2014-08-29T07:51:15Z</time>
      </trkpt>
      <trkpt lat="45.20152" lon="5.55751">
        <ele>1260.4</ele>
        <time>2014-08-29T07:51:27Z</time>
      </trkpt>
      <trkpt lat="45.20204" lon="5.55795">
        <ele>1264.9</ele>
        <time>2014-08-29T07:51:44Z</time>
      </trkpt>
      <trkpt lat="45.20222" lon="5.55799">
        <ele>1266.4</ele>
        <time>2014-08-29T07:51:51Z</time>
      </trkpt>
      <trkpt lat="45.2026" lon="5.55774">
        <ele>1270.1</ele>
        <time>2014-08-29T07:52:08Z</time>
      </trkpt>
      <trkpt lat="45.20279" lon="5.55774">
        <ele>1272.3</ele>
        <time>2014-08-29T07:52:18Z</time>
      </trkpt>
      <trkpt lat="45.20294" lon="5.55781">
        <ele>1274</ele>
        <time>2014-08-29T07:52:26Z</time>
      </trkpt>
      <trkpt lat="45.20305" lon="5.55791">
        <ele>1275.3</ele>
        <time>2014-08-29T07:52:33Z</time>
      </trkpt>
      <trkpt lat="45.20318" lon="5.55793">
        <ele>1276.8</ele>
        <time>2014-08-29T07:52:42Z</time>
      </trkpt>
      <trkpt lat="45.20329" lon="5.55782">
        <ele>1278.1</ele>
        <time>2014-08-29T07:52:52Z</time>
      </trkpt>
      <trkpt lat="45.20351" lon="5.55771">
        <ele>1282.3</ele>
        <time>2014-08-29T07:53:11Z</time>
      </trkpt>
      <trkpt lat="45.20365" lon="5.55769">
        <ele>1285.2</ele>
        <time>2014-08-29T07:53:23Z</time>
      </trkpt>
      <trkpt lat="45.20455" lon="5.55809">
        <ele>1296.5</ele>
        <time>2014-08-29T07:54:26Z</time>
      </trkpt>
      <trkpt lat="45.20488" lon="5.55805">
        <ele>1299.4</ele>
        <time>2014-08-29T07:54:39Z</time>
      </trkpt>
      <trkpt lat="45.20538" lon="5.55845">
        <ele>1293.6</ele>
        <time>2014-08-29T07:54:52Z</time>
      </trkpt>
      <trkpt lat="45.20554" lon="5.55851">
        <ele>1291.9</ele>
        <time>2014-08-29T07:54:56Z</time>
      </trkpt>
      <trkpt lat="45.20583" lon="5.55851">
        <ele>1290.5</ele>
        <time>2014-08-29T07:55:03Z</time>
      </trkpt>
      <trkpt lat="45.2059" lon="5.55847">
        <ele>1290.3</ele>
        <time>2014-08-29T07:55:04Z</time>
      </trkpt>
      <trkpt lat="45.20621" lon="5.55844">
        <ele>1288</ele>
        <time>2014-08-29T07:55:08Z</time>
      </trkpt>
      <trkpt lat="45.20636" lon="5.55831">
        <ele>1287.1</ele>
        <time>2014-08-29T07:55:16Z</time>
      </trkpt>
      <trkpt lat="45.20639" lon="5.55825">
        <ele>1287.3</ele>
        <time>2014-08-29T07:55:59Z</time>
      </trkpt>
      <trkpt lat="45.20659" lon="5.55813">
        <ele>1286.3</ele>
        <time>2014-08-29T07:56:07Z</time>
      </trkpt>
      <trkpt lat="45.20697" lon="5.55815">
        <ele>1285.1</ele>
        <time>2014-08-29T08:04:17Z</time>
      </trkpt>
      <trkpt lat="45.20701" lon="5.55812">
        <ele>1285.1</ele>
        <time>2014-08-29T08:04:20Z</time>
      </trkpt>
      <trkpt lat="45.20712" lon="5.55813">
        <ele>1284.9</ele>
        <time>2014-08-29T08:04:24Z</time>
      </trkpt>
      <trkpt lat="45.2073" lon="5.55809">
        <ele>1284.7</ele>
        <time>2014-08-29T08:04:30Z</time>
      </trkpt>
      <trkpt lat="45.20739" lon="5.55819">
        <ele>1284.3</ele>
        <time>2014-08-29T08:04:33Z</time>
      </trkpt>
      <trkpt lat="45.20745" lon="5.5582">
        <ele>1284.2</ele>
        <time>2014-08-29T08:04:35Z</time>
      </trkpt>
      <trkpt lat="45.20765" lon="5.55803">
        <ele>1284.7</ele>
        <time>2014-08-29T08:04:41Z</time>
      </trkpt>
      <trkpt lat="45.2079" lon="5.55797">
        <ele>1285.6</ele>
        <time>2014-08-29T08:04:48Z</time>
      </trkpt>
      <trkpt lat="45.20824" lon="5.55809">
        <ele>1285.9</ele>
        <time>2014-08-29T08:04:59Z</time>
      </trkpt>
      <trkpt lat="45.20826" lon="5.55806">
        <ele>1286.1</ele>
        <time>2014-08-29T08:05:03Z</time>
      </trkpt>
      <trkpt lat="45.20825" lon="5.5581">
        <ele>1285.9</ele>
        <time>2014-08-29T08:05:07Z</time>
      </trkpt>
      <trkpt lat="45.20829" lon="5.55818">
        <ele>1285.7</ele>
        <time>2014-08-29T08:05:11Z</time>
      </trkpt>
      <trkpt lat="45.20838" lon="5.55826">
        <ele>1285.8</ele>
        <time>2014-08-29T08:05:15Z</time>
      </trkpt>
      <trkpt lat="45.20852" lon="5.55831">
        <ele>1286.9</ele>
        <time>2014-08-29T08:05:20Z</time>
      </trkpt>
      <trkpt lat="45.20869" lon="5.55831">
        <ele>1288.5</ele>
        <time>2014-08-29T08:05:26Z</time>
      </trkpt>
      <trkpt lat="45.20878" lon="5.55826">
        <ele>1289.6</ele>
        <time>2014-08-29T08:05:30Z</time>
      </trkpt>
      <trkpt lat="45.20904" lon="5.55828">
        <ele>1292</ele>
        <time>2014-08-29T08:05:39Z</time>
      </trkpt>
      <trkpt lat="45.20928" lon="5.55812">
        <ele>1294.4</ele>
        <time>2014-08-29T08:05:50Z</time>
      </trkpt>
      <trkpt lat="45.20963" lon="5.55762">
        <ele>1298.8</ele>
        <time>2014-08-29T08:06:12Z</time>
      </trkpt>
      <trkpt lat="45.20994" lon="5.55766">
        <ele>1300.6</ele>
        <time>2014-08-29T08:06:35Z</time>
      </trkpt>
      <trkpt lat="45.21004" lon="5.55784">
        <ele>1300.2</ele>
        <time>2014-08-29T08:06:41Z</time>
      </trkpt>
      <trkpt lat="45.21016" lon="5.55795">
        <ele>1300.4</ele>
        <time>2014-08-29T08:06:47Z</time>
      </trkpt>
      <trkpt lat="45.2104" lon="5.55794">
        <ele>1302</ele>
        <time>2014-08-29T08:06:54Z</time>
      </trkpt>
      <trkpt lat="45.2105" lon="5.55803">
        <ele>1302</ele>
        <time>2014-08-29T08:06:58Z</time>
      </trkpt>
      <trkpt lat="45.21056" lon="5.55816">
        <ele>1301.5</ele>
        <time>2014-08-29T08:07:02Z</time>
      </trkpt>
      <trkpt lat="45.21099" lon="5.55847">
        <ele>1301.2</ele>
        <time>2014-08-29T08:07:19Z</time>
      </trkpt>
      <trkpt lat="45.21179" lon="5.5586">
        <ele>1300.8</ele>
        <time>2014-08-29T08:07:45Z</time>
      </trkpt>
      <trkpt lat="45.21181" lon="5.55871">
        <ele>1300.5</ele>
        <time>2014-08-29T08:07:48Z</time>
      </trkpt>
      <trkpt lat="45.21187" lon="5.55883">
        <ele>1300.2</ele>
        <time>2014-08-29T08:07:52Z</time>
      </trkpt>
      <trkpt lat="45.21204" lon="5.55877">
        <ele>1301.3</ele>
        <time>2014-08-29T08:08:01Z</time>
      </trkpt>
      <trkpt lat="45.21237" lon="5.55853">
        <ele>1305.2</ele>
        <time>2014-08-29T08:08:13Z</time>
      </trkpt>
      <trkpt lat="45.21246" lon="5.5585">
        <ele>1306.1</ele>
        <time>2014-08-29T08:08:17Z</time>
      </trkpt>
      <trkpt lat="45.21258" lon="5.55855">
        <ele>1306.7</ele>
        <time>2014-08-29T08:08:24Z</time>
      </trkpt>
      <trkpt lat="45.21269" lon="5.55854">
        <ele>1308</ele>
        <time>2014-08-29T08:08:29Z</time>
      </trkpt>
      <trkpt lat="45.21273" lon="5.5586">
        <ele>1307.8</ele>
        <time>2014-08-29T08:08:32Z</time>
      </trkpt>
      <trkpt lat="45.21274" lon="5.55869">
        <ele>1306.9</ele>
        <time>2014-08-29T08:08:36Z</time>
      </trkpt>
      <trkpt lat="45.21279" lon="5.55879">
        <ele>1306.4</ele>
        <time>2014-08-29T08:08:41Z</time>
      </trkpt>
      <trkpt lat="45.21294" lon="5.55999">
        <ele>1301</ele>
        <time>2014-08-29T08:09:07Z</time>
      </trkpt>
      <trkpt lat="45.21327" lon="5.5601">
        <ele>1301.4</ele>
        <time>2014-08-29T08:09:23Z</time>
      </trkpt>
      <trkpt lat="45.21329" lon="5.56009">
        <ele>1301.3</ele>
        <time>2014-08-29T08:09:25Z</time>
      </trkpt>
      <trkpt lat="45.21326" lon="5.56003">
        <ele>1301.1</ele>
        <time>2014-08-29T08:09:28Z</time>
      </trkpt>
      <trkpt lat="45.21296" lon="5.55992">
        <ele>1301.3</ele>
        <time>2014-08-29T08:09:45Z</time>
      </trkpt>
      <trkpt lat="45.21295" lon="5.55989">
        <ele>1301.4</ele>
        <time>2014-08-29T08:09:49Z</time>
      </trkpt>
      <trkpt lat="45.21307" lon="5.56003">
        <ele>1301.2</ele>
        <time>2014-08-29T08:11:14Z</time>
      </trkpt>
      <trkpt lat="45.21304" lon="5.56008">
        <ele>1301.4</ele>
        <time>2014-08-29T08:11:16Z</time>
      </trkpt>
      <trkpt lat="45.213" lon="5.56008">
        <ele>1301.5</ele>
        <time>2014-08-29T08:11:18Z</time>
      </trkpt>
      <trkpt lat="45.2129" lon="5.55998">
        <ele>1301.1</ele>
        <time>2014-08-29T08:11:23Z</time>
      </trkpt>
      <trkpt lat="45.21286" lon="5.56003">
        <ele>1301.2</ele>
        <time>2014-08-29T08:11:26Z</time>
      </trkpt>
      <trkpt lat="45.21289" lon="5.56009">
        <ele>1301.6</ele>
        <time>2014-08-29T08:11:30Z</time>
      </trkpt>
      <trkpt lat="45.21398" lon="5.5606">
        <ele>1297.8</ele>
        <time>2014-08-29T08:12:18Z</time>
      </trkpt>
      <trkpt lat="45.21401" lon="5.56053">
        <ele>1297.6</ele>
        <time>2014-08-29T08:12:21Z</time>
      </trkpt>
      <trkpt lat="45.21394" lon="5.5601">
        <ele>1298.1</ele>
        <time>2014-08-29T08:12:31Z</time>
      </trkpt>
      <trkpt lat="45.21387" lon="5.56006">
        <ele>1298.4</ele>
        <time>2014-08-29T08:12:33Z</time>
      </trkpt>
      <trkpt lat="45.21354" lon="5.5601">
        <ele>1300.2</ele>
        <time>2014-08-29T08:12:42Z</time>
      </trkpt>
      <trkpt lat="45.2134" lon="5.56006">
        <ele>1300.9</ele>
        <time>2014-08-29T08:12:46Z</time>
      </trkpt>
      <trkpt lat="45.21336" lon="5.56011">
        <ele>1301.2</ele>
        <time>2014-08-29T08:12:51Z</time>
      </trkpt>
      <trkpt lat="45.21339" lon="5.56006">
        <ele>1301</ele>
        <time>2014-08-29T08:17:30Z</time>
      </trkpt>
      <trkpt lat="45.21339" lon="5.56009">
        <ele>1301</ele>
        <time>2014-08-29T08:17:31Z</time>
      </trkpt>
      <trkpt lat="45.21336" lon="5.56011">
        <ele>1301.2</ele>
        <time>2014-08-29T08:22:03Z</time>
      </trkpt>
      <trkpt lat="45.21814" lon="5.56024">
        <ele>1298.7</ele>
        <time>2014-08-29T08:26:17Z</time>
      </trkpt>
      <trkpt lat="45.21821" lon="5.5603">
        <ele>1298.5</ele>
        <time>2014-08-29T08:26:19Z</time>
      </trkpt>
      <trkpt lat="45.2199" lon="5.56358">
        <ele>1315.9</ele>
        <time>2014-08-29T08:27:35Z</time>
      </trkpt>
      <trkpt lat="45.21998" lon="5.56395">
        <ele>1318.9</ele>
        <time>2014-08-29T08:27:45Z</time>
      </trkpt>
      <trkpt lat="45.22013" lon="5.56422">
        <ele>1320.6</ele>
        <time>2014-08-29T08:27:54Z</time>
      </trkpt>
      <trkpt lat="45.22031" lon="5.56439">
        <ele>1320.9</ele>
        <time>2014-08-29T08:28:03Z</time>
      </trkpt>
      <trkpt lat="45.22086" lon="5.56606">
        <ele>1325.7</ele>
        <time>2014-08-29T08:28:53Z</time>
      </trkpt>
      <trkpt lat="45.22084" lon="5.56632">
        <ele>1326.2</ele>
        <time>2014-08-29T08:28:59Z</time>
      </trkpt>
      <trkpt lat="45.21988" lon="5.56866">
        <ele>1348.6</ele>
        <time>2014-08-29T08:30:22Z</time>
      </trkpt>
      <trkpt lat="45.21976" lon="5.56883">
        <ele>1350.2</ele>
        <time>2014-08-29T08:30:29Z</time>
      </trkpt>
      <trkpt lat="45.21961" lon="5.56891">
        <ele>1350.7</ele>
        <time>2014-08-29T08:30:35Z</time>
      </trkpt>
      <trkpt lat="45.21931" lon="5.56892">
        <ele>1350.3</ele>
        <time>2014-08-29T08:30:47Z</time>
      </trkpt>
      <trkpt lat="45.2192" lon="5.56901">
        <ele>1350.5</ele>
        <time>2014-08-29T08:30:52Z</time>
      </trkpt>
      <trkpt lat="45.21913" lon="5.56917">
        <ele>1350.6</ele>
        <time>2014-08-29T08:30:58Z</time>
      </trkpt>
      <trkpt lat="45.2192" lon="5.56944">
        <ele>1353.1</ele>
        <time>2014-08-29T08:31:08Z</time>
      </trkpt>
      <trkpt lat="45.21989" lon="5.56947">
        <ele>1357.1</ele>
        <time>2014-08-29T08:31:37Z</time>
      </trkpt>
      <trkpt lat="45.21995" lon="5.56953">
        <ele>1358.1</ele>
        <time>2014-08-29T08:31:40Z</time>
      </trkpt>
      <trkpt lat="45.22003" lon="5.56969">
        <ele>1360.4</ele>
        <time>2014-08-29T08:31:46Z</time>
      </trkpt>
      <trkpt lat="45.22006" lon="5.56986">
        <ele>1362.6</ele>
        <time>2014-08-29T08:31:52Z</time>
      </trkpt>
      <trkpt lat="45.21999" lon="5.57033">
        <ele>1365.1</ele>
        <time>2014-08-29T08:32:06Z</time>
      </trkpt>
      <trkpt lat="45.22017" lon="5.57107">
        <ele>1368.2</ele>
        <time>2014-08-29T08:32:22Z</time>
      </trkpt>
      <trkpt lat="45.22003" lon="5.57128">
        <ele>1364.8</ele>
        <time>2014-08-29T08:32:29Z</time>
      </trkpt>
      <trkpt lat="45.21999" lon="5.57144">
        <ele>1363.2</ele>
        <time>2014-08-29T08:32:33Z</time>
      </trkpt>
      <trkpt lat="45.22001" lon="5.57157">
        <ele>1362.8</ele>
        <time>2014-08-29T08:32:37Z</time>
      </trkpt>
      <trkpt lat="45.22038" lon="5.57239">
        <ele>1363</ele>
        <time>2014-08-29T08:33:08Z</time>
      </trkpt>
      <trkpt lat="45.22045" lon="5.57243">
        <ele>1364.4</ele>
        <time>2014-08-29T08:33:11Z</time>
      </trkpt>
      <trkpt lat="45.22062" lon="5.57238">
        <ele>1368.9</ele>
        <time>2014-08-29T08:33:19Z</time>
      </trkpt>
      <trkpt lat="45.22083" lon="5.57205">
        <ele>1375.6</ele>
        <time>2014-08-29T08:33:31Z</time>
      </trkpt>
      <trkpt lat="45.22093" lon="5.57197">
        <ele>1376.9</ele>
        <time>2014-08-29T08:33:36Z</time>
      </trkpt>
      <trkpt lat="45.22103" lon="5.57198">
        <ele>1377.7</ele>
        <time>2014-08-29T08:33:40Z</time>
      </trkpt>
      <trkpt lat="45.22139" lon="5.57265">
        <ele>1381.5</ele>
        <time>2014-08-29T08:34:06Z</time>
      </trkpt>
      <trkpt lat="45.22167" lon="5.57288">
        <ele>1386</ele>
        <time>2014-08-29T08:34:19Z</time>
      </trkpt>
      <trkpt lat="45.22258" lon="5.57288">
        <ele>1391.4</ele>
        <time>2014-08-29T08:42:43Z</time>
      </trkpt>
      <trkpt lat="45.22371" lon="5.57217">
        <ele>1393.7</ele>
        <time>2014-08-29T08:43:10Z</time>
      </trkpt>
      <trkpt lat="45.22381" lon="5.5722">
        <ele>1395.4</ele>
        <time>2014-08-29T08:43:13Z</time>
      </trkpt>
      <trkpt lat="45.22397" lon="5.5723">
        <ele>1398.9</ele>
        <time>2014-08-29T08:43:20Z</time>
      </trkpt>
      <trkpt lat="45.22409" lon="5.57227">
        <ele>1400.6</ele>
        <time>2014-08-29T08:43:25Z</time>
      </trkpt>
      <trkpt lat="45.22426" lon="5.57212">
        <ele>1401.8</ele>
        <time>2014-08-29T08:43:33Z</time>
      </trkpt>
      <trkpt lat="45.22445" lon="5.57183">
        <ele>1401.2</ele>
        <time>2014-08-29T08:43:47Z</time>
      </trkpt>
      <trkpt lat="45.22471" lon="5.57159">
        <ele>1401.1</ele>
        <time>2014-08-29T08:44:04Z</time>
      </trkpt>
      <trkpt lat="45.22483" lon="5.57155">
        <ele>1401.7</ele>
        <time>2014-08-29T08:44:09Z</time>
      </trkpt>
      <trkpt lat="45.22532" lon="5.57158">
        <ele>1406.3</ele>
        <time>2014-08-29T08:44:34Z</time>
      </trkpt>
      <trkpt lat="45.2256" lon="5.57171">
        <ele>1410.2</ele>
        <time>2014-08-29T08:44:48Z</time>
      </trkpt>
      <trkpt lat="45.22576" lon="5.57186">
        <ele>1413.3</ele>
        <time>2014-08-29T08:44:57Z</time>
      </trkpt>
      <trkpt lat="45.22601" lon="5.57283">
        <ele>1426.8</ele>
        <time>2014-08-29T08:45:33Z</time>
      </trkpt>
      <trkpt lat="45.22608" lon="5.57291">
        <ele>1427.7</ele>
        <time>2014-08-29T08:45:38Z</time>
      </trkpt>
      <trkpt lat="45.22842" lon="5.57429">
        <ele>1421</ele>
        <time>2014-08-29T08:46:33Z</time>
      </trkpt>
      <trkpt lat="45.22894" lon="5.57433">
        <ele>1426</ele>
        <time>2014-08-29T08:46:52Z</time>
      </trkpt>
      <trkpt lat="45.22938" lon="5.5742">
        <ele>1430.6</ele>
        <time>2014-08-29T08:47:08Z</time>
      </trkpt>
      <trkpt lat="45.22984" lon="5.5743">
        <ele>1434.1</ele>
        <time>2014-08-29T08:47:31Z</time>
      </trkpt>
      <trkpt lat="45.22992" lon="5.57429">
        <ele>1434.9</ele>
        <time>2014-08-29T08:47:35Z</time>
      </trkpt>
      <trkpt lat="45.23015" lon="5.57419">
        <ele>1438.6</ele>
        <time>2014-08-29T08:47:46Z</time>
      </trkpt>
      <trkpt lat="45.23024" lon="5.57417">
        <ele>1440.4</ele>
        <time>2014-08-29T08:47:51Z</time>
      </trkpt>
      <trkpt lat="45.2305" lon="5.57424">
        <ele>1444.6</ele>
        <time>2014-08-29T08:48:04Z</time>
      </trkpt>
      <trkpt lat="45.23065" lon="5.57435">
        <ele>1446.6</ele>
        <time>2014-08-29T08:48:11Z</time>
      </trkpt>
      <trkpt lat="45.23093" lon="5.57491">
        <ele>1448.6</ele>
        <time>2014-08-29T08:48:31Z</time>
      </trkpt>
      <trkpt lat="45.23095" lon="5.57612">
        <ele>1457.3</ele>
        <time>2014-08-29T08:49:05Z</time>
      </trkpt>
      <trkpt lat="45.231" lon="5.57624">
        <ele>1458.9</ele>
        <time>2014-08-29T08:49:09Z</time>
      </trkpt>
      <trkpt lat="45.23105" lon="5.57629">
        <ele>1460.2</ele>
        <time>2014-08-29T08:49:12Z</time>
      </trkpt>
      <trkpt lat="45.23112" lon="5.57631">
        <ele>1461.5</ele>
        <time>2014-08-29T08:49:16Z</time>
      </trkpt>
      <trkpt lat="45.23124" lon="5.57626">
        <ele>1463.4</ele>
        <time>2014-08-29T08:49:23Z</time>
      </trkpt>
      <trkpt lat="45.23154" lon="5.57548">
        <ele>1463.9</ele>
        <time>2014-08-29T08:49:48Z</time>
      </trkpt>
      <trkpt lat="45.23227" lon="5.57476">
        <ele>1472</ele>
        <time>2014-08-29T08:50:19Z</time>
      </trkpt>
      <trkpt lat="45.23238" lon="5.57473">
        <ele>1473.7</ele>
        <time>2014-08-29T08:50:24Z</time>
      </trkpt>
      <trkpt lat="45.23295" lon="5.57491">
        <ele>1478.6</ele>
        <time>2014-08-29T08:50:44Z</time>
      </trkpt>
      <trkpt lat="45.23332" lon="5.57527">
        <ele>1480.6</ele>
        <time>2014-08-29T08:51:04Z</time>
      </trkpt>
      <trkpt lat="45.23334" lon="5.57538">
        <ele>1480.6</ele>
        <time>2014-08-29T08:51:22Z</time>
      </trkpt>
      <trkpt lat="45.23342" lon="5.57537">
        <ele>1481.3</ele>
        <time>2014-08-29T08:51:26Z</time>
      </trkpt>
      <trkpt lat="45.23346" lon="5.5753">
        <ele>1481.8</ele>
        <time>2014-08-29T08:51:32Z</time>
      </trkpt>
      <trkpt lat="45.2333" lon="5.57523">
        <ele>1480.6</ele>
        <time>2014-08-29T08:52:07Z</time>
      </trkpt>
      <trkpt lat="45.23327" lon="5.57528">
        <ele>1480.4</ele>
        <time>2014-08-29T08:52:37Z</time>
      </trkpt>
      <trkpt lat="45.23333" lon="5.5753">
        <ele>1480.6</ele>
        <time>2014-08-29T08:52:41Z</time>
      </trkpt>
      <trkpt lat="45.23333" lon="5.57528">
        <ele>1480.6</ele>
        <time>2014-08-29T08:52:45Z</time>
      </trkpt>
      <trkpt lat="45.23342" lon="5.57528">
        <ele>1481.5</ele>
        <time>2014-08-29T08:57:58Z</time>
      </trkpt>
      <trkpt lat="45.2338" lon="5.57545">
        <ele>1484</ele>
        <time>2014-08-29T08:58:11Z</time>
      </trkpt>
      <trkpt lat="45.23412" lon="5.57546">
        <ele>1486.4</ele>
        <time>2014-08-29T08:58:26Z</time>
      </trkpt>
      <trkpt lat="45.23426" lon="5.57561">
        <ele>1487.5</ele>
        <time>2014-08-29T08:58:35Z</time>
      </trkpt>
      <trkpt lat="45.2346" lon="5.57578">
        <ele>1492.3</ele>
        <time>2014-08-29T08:58:59Z</time>
      </trkpt>
      <trkpt lat="45.23487" lon="5.57581">
        <ele>1497.1</ele>
        <time>2014-08-29T08:59:17Z</time>
      </trkpt>
      <trkpt lat="45.23493" lon="5.57584">
        <ele>1497.7</ele>
        <time>2014-08-29T08:59:21Z</time>
      </trkpt>
      <trkpt lat="45.23504" lon="5.57585">
        <ele>1499.8</ele>
        <time>2014-08-29T08:59:29Z</time>
      </trkpt>
      <trkpt lat="45.23515" lon="5.57599">
        <ele>1500.9</ele>
        <time>2014-08-29T08:59:39Z</time>
      </trkpt>
      <trkpt lat="45.23528" lon="5.57641">
        <ele>1498.6</ele>
        <time>2014-08-29T09:00:03Z</time>
      </trkpt>
      <trkpt lat="45.23538" lon="5.5765">
        <ele>1499.1</ele>
        <time>2014-08-29T09:00:09Z</time>
      </trkpt>
      <trkpt lat="45.23575" lon="5.57665">
        <ele>1503</ele>
        <time>2014-08-29T09:00:23Z</time>
      </trkpt>
      <trkpt lat="45.23622" lon="5.57709">
        <ele>1504.8</ele>
        <time>2014-08-29T09:00:59Z</time>
      </trkpt>
      <trkpt lat="45.23634" lon="5.5771">
        <ele>1507.1</ele>
        <time>2014-08-29T09:01:01Z</time>
      </trkpt>
      <trkpt lat="45.23649" lon="5.577">
        <ele>1511</ele>
        <time>2014-08-29T09:01:07Z</time>
      </trkpt>
      <trkpt lat="45.23662" lon="5.57697">
        <ele>1513.8</ele>
        <time>2014-08-29T09:01:14Z</time>
      </trkpt>
      <trkpt lat="45.23692" lon="5.577">
        <ele>1517.5</ele>
        <time>2014-08-29T09:01:20Z</time>
      </trkpt>
      <trkpt lat="45.23769" lon="5.5773">
        <ele>1523.1</ele>
        <time>2014-08-29T09:01:55Z</time>
      </trkpt>
      <trkpt lat="45.23781" lon="5.57727">
        <ele>1524.4</ele>
        <time>2014-08-29T09:02:01Z</time>
      </trkpt>
      <trkpt lat="45.23884" lon="5.57769">
        <ele>1521.1</ele>
        <time>2014-08-29T09:02:25Z</time>
      </trkpt>
      <trkpt lat="45.23901" lon="5.57808">
        <ele>1511.9</ele>
        <time>2014-08-29T09:02:30Z</time>
      </trkpt>
      <trkpt lat="45.23905" lon="5.57812">
        <ele>1511.1</ele>
        <time>2014-08-29T09:02:31Z</time>
      </trkpt>
      <trkpt lat="45.23923" lon="5.57814">
        <ele>1510.5</ele>
        <time>2014-08-29T09:02:34Z</time>
      </trkpt>
      <trkpt lat="45.2395" lon="5.57805">
        <ele>1510.2</ele>
        <time>2014-08-29T09:02:38Z</time>
      </trkpt>
      <trkpt lat="45.23991" lon="5.5776">
        <ele>1519</ele>
        <time>2014-08-29T09:02:49Z</time>
      </trkpt>
      <trkpt lat="45.24009" lon="5.57752">
        <ele>1521</ele>
        <time>2014-08-29T09:02:55Z</time>
      </trkpt>
      <trkpt lat="45.24016" lon="5.57756">
        <ele>1520.4</ele>
        <time>2014-08-29T09:02:57Z</time>
      </trkpt>
      <trkpt lat="45.2418" lon="5.57923">
        <ele>1512</ele>
        <time>2014-08-29T09:03:24Z</time>
      </trkpt>
      <trkpt lat="45.24184" lon="5.57937">
        <ele>1514</ele>
        <time>2014-08-29T09:03:26Z</time>
      </trkpt>
      <trkpt lat="45.24123" lon="5.582">
        <ele>1511.7</ele>
        <time>2014-08-29T09:04:06Z</time>
      </trkpt>
      <trkpt lat="45.2413" lon="5.58246">
        <ele>1516.2</ele>
        <time>2014-08-29T09:04:16Z</time>
      </trkpt>
      <trkpt lat="45.24124" lon="5.58281">
        <ele>1512.9</ele>
        <time>2014-08-29T09:04:22Z</time>
      </trkpt>
      <trkpt lat="45.24144" lon="5.58405">
        <ele>1516.7</ele>
        <time>2014-08-29T09:04:35Z</time>
      </trkpt>
      <trkpt lat="45.24137" lon="5.58453">
        <ele>1517.7</ele>
        <time>2014-08-29T09:04:39Z</time>
      </trkpt>
      <trkpt lat="45.24118" lon="5.58494">
        <ele>1516.3</ele>
        <time>2014-08-29T09:04:49Z</time>
      </trkpt>
      <trkpt lat="45.24108" lon="5.58502">
        <ele>1514.4</ele>
        <time>2014-08-29T09:04:52Z</time>
      </trkpt>
      <trkpt lat="45.23992" lon="5.58517">
        <ele>1502.9</ele>
        <time>2014-08-29T09:05:10Z</time>
      </trkpt>
      <trkpt lat="45.23891" lon="5.58601">
        <ele>1510.8</ele>
        <time>2014-08-29T09:05:34Z</time>
      </trkpt>
      <trkpt lat="45.23836" lon="5.58615">
        <ele>1507.9</ele>
        <time>2014-08-29T09:05:44Z</time>
      </trkpt>
      <trkpt lat="45.23804" lon="5.58644">
        <ele>1511.1</ele>
        <time>2014-08-29T09:06:03Z</time>
      </trkpt>
      <trkpt lat="45.23793" lon="5.58661">
        <ele>1513.9</ele>
        <time>2014-08-29T09:06:13Z</time>
      </trkpt>
      <trkpt lat="45.2383" lon="5.58622">
        <ele>1509.5</ele>
        <time>2014-08-29T09:06:32Z</time>
      </trkpt>
      <trkpt lat="45.23904" lon="5.58607">
        <ele>1514.3</ele>
        <time>2014-08-29T09:06:43Z</time>
      </trkpt>
      <trkpt lat="45.23988" lon="5.5852">
        <ele>1502.9</ele>
        <time>2014-08-29T09:07:04Z</time>
      </trkpt>
      <trkpt lat="45.23883" lon="5.58598">
        <ele>1508.9</ele>
        <time>2014-08-29T09:11:47Z</time>
      </trkpt>
      <trkpt lat="45.2386" lon="5.586">
        <ele>1506.4</ele>
        <time>2014-08-29T09:11:52Z</time>
      </trkpt>
      <trkpt lat="45.23832" lon="5.58615">
        <ele>1507.4</ele>
        <time>2014-08-29T09:12:01Z</time>
      </trkpt>
      <trkpt lat="45.23802" lon="5.58643">
        <ele>1510.3</ele>
        <time>2014-08-29T09:12:15Z</time>
      </trkpt>
      <trkpt lat="45.23774" lon="5.58689">
        <ele>1515.8</ele>
        <time>2014-08-29T09:12:36Z</time>
      </trkpt>
      <trkpt lat="45.23755" lon="5.58804">
        <ele>1527.2</ele>
        <time>2014-08-29T09:13:24Z</time>
      </trkpt>
      <trkpt lat="45.23764" lon="5.58854">
        <ele>1533.6</ele>
        <time>2014-08-29T09:13:39Z</time>
      </trkpt>
      <trkpt lat="45.23761" lon="5.58889">
        <ele>1536.3</ele>
        <time>2014-08-29T09:13:51Z</time>
      </trkpt>
      <trkpt lat="45.23754" lon="5.58904">
        <ele>1537.1</ele>
        <time>2014-08-29T09:13:58Z</time>
      </trkpt>
      <trkpt lat="45.23579" lon="5.5908">
        <ele>1544.7</ele>
        <time>2014-08-29T09:14:58Z</time>
      </trkpt>
      <trkpt lat="45.23575" lon="5.59092">
        <ele>1546.9</ele>
        <time>2014-08-29T09:15:03Z</time>
      </trkpt>
      <trkpt lat="45.23583" lon="5.59098">
        <ele>1548.7</ele>
        <time>2014-08-29T09:15:08Z</time>
      </trkpt>
      <trkpt lat="45.23593" lon="5.59093">
        <ele>1548</ele>
        <time>2014-08-29T09:15:13Z</time>
      </trkpt>
      <trkpt lat="45.23607" lon="5.5909">
        <ele>1548</ele>
        <time>2014-08-29T09:15:18Z</time>
      </trkpt>
      <trkpt lat="45.23629" lon="5.59091">
        <ele>1548.9</ele>
        <time>2014-08-29T09:15:28Z</time>
      </trkpt>
      <trkpt lat="45.23634" lon="5.59094">
        <ele>1549.3</ele>
        <time>2014-08-29T09:15:31Z</time>
      </trkpt>
      <trkpt lat="45.23639" lon="5.59104">
        <ele>1550.2</ele>
        <time>2014-08-29T09:15:36Z</time>
      </trkpt>
      <trkpt lat="45.23639" lon="5.5911">
        <ele>1550.7</ele>
        <time>2014-08-29T09:15:39Z</time>
      </trkpt>
      <trkpt lat="45.23635" lon="5.59123">
        <ele>1551.8</ele>
        <time>2014-08-29T09:15:45Z</time>
      </trkpt>
      <trkpt lat="45.23613" lon="5.5913">
        <ele>1553.3</ele>
        <time>2014-08-29T09:15:54Z</time>
      </trkpt>
      <trkpt lat="45.23564" lon="5.59181">
        <ele>1562.6</ele>
        <time>2014-08-29T09:16:18Z</time>
      </trkpt>
      <trkpt lat="45.23563" lon="5.59186">
        <ele>1563.3</ele>
        <time>2014-08-29T09:16:20Z</time>
      </trkpt>
      <trkpt lat="45.2357" lon="5.59192">
        <ele>1564.2</ele>
        <time>2014-08-29T09:16:25Z</time>
      </trkpt>
      <trkpt lat="45.23576" lon="5.59193">
        <ele>1564.4</ele>
        <time>2014-08-29T09:16:29Z</time>
      </trkpt>
      <trkpt lat="45.23584" lon="5.59199">
        <ele>1565.2</ele>
        <time>2014-08-29T09:16:36Z</time>
      </trkpt>
      <trkpt lat="45.23583" lon="5.59214">
        <ele>1567.3</ele>
        <time>2014-08-29T09:16:43Z</time>
      </trkpt>
      <trkpt lat="45.23579" lon="5.59225">
        <ele>1568.7</ele>
        <time>2014-08-29T09:16:47Z</time>
      </trkpt>
      <trkpt lat="45.23571" lon="5.59234">
        <ele>1570.1</ele>
        <time>2014-08-29T09:16:51Z</time>
      </trkpt>
      <trkpt lat="45.23557" lon="5.59245">
        <ele>1571.9</ele>
        <time>2014-08-29T09:16:57Z</time>
      </trkpt>
      <trkpt lat="45.23537" lon="5.59248">
        <ele>1572.8</ele>
        <time>2014-08-29T09:17:04Z</time>
      </trkpt>
      <trkpt lat="45.23521" lon="5.59247">
        <ele>1573</ele>
        <time>2014-08-29T09:17:14Z</time>
      </trkpt>
      <trkpt lat="45.23504" lon="5.59266">
        <ele>1575.1</ele>
        <time>2014-08-29T09:17:25Z</time>
      </trkpt>
      <trkpt lat="45.23498" lon="5.59268">
        <ele>1575.4</ele>
        <time>2014-08-29T09:17:30Z</time>
      </trkpt>
      <trkpt lat="45.23477" lon="5.59262">
        <ele>1575.6</ele>
        <time>2014-08-29T09:17:39Z</time>
      </trkpt>
      <trkpt lat="45.23458" lon="5.59262">
        <ele>1576.3</ele>
        <time>2014-08-29T09:17:47Z</time>
      </trkpt>
      <trkpt lat="45.23447" lon="5.59265">
        <ele>1576.9</ele>
        <time>2014-08-29T09:17:52Z</time>
      </trkpt>
      <trkpt lat="45.23441" lon="5.5927">
        <ele>1577.4</ele>
        <time>2014-08-29T09:17:56Z</time>
      </trkpt>
      <trkpt lat="45.23431" lon="5.59287">
        <ele>1578.8</ele>
        <time>2014-08-29T09:18:04Z</time>
      </trkpt>
      <trkpt lat="45.23432" lon="5.593">
        <ele>1579.6</ele>
        <time>2014-08-29T09:18:09Z</time>
      </trkpt>
      <trkpt lat="45.23436" lon="5.59308">
        <ele>1580</ele>
        <time>2014-08-29T09:18:13Z</time>
      </trkpt>
      <trkpt lat="45.23437" lon="5.59307">
        <ele>1579.8</ele>
        <time>2014-08-29T09:18:15Z</time>
      </trkpt>
      <trkpt lat="45.23433" lon="5.59298">
        <ele>1579.4</ele>
        <time>2014-08-29T09:18:19Z</time>
      </trkpt>
      <trkpt lat="45.23442" lon="5.59267">
        <ele>1577.1</ele>
        <time>2014-08-29T09:18:27Z</time>
      </trkpt>
      <trkpt lat="45.2344" lon="5.59244">
        <ele>1575.2</ele>
        <time>2014-08-29T09:18:32Z</time>
      </trkpt>
      <trkpt lat="45.23421" lon="5.59232">
        <ele>1573.9</ele>
        <time>2014-08-29T09:18:42Z</time>
      </trkpt>
      <trkpt lat="45.23412" lon="5.59231">
        <ele>1574</ele>
        <time>2014-08-29T09:18:48Z</time>
      </trkpt>
      <trkpt lat="45.23418" lon="5.5923">
        <ele>1573.9</ele>
        <time>2014-08-29T09:18:54Z</time>
      </trkpt>
      <trkpt lat="45.23431" lon="5.59235">
        <ele>1574.1</ele>
        <time>2014-08-29T09:18:57Z</time>
      </trkpt>
      <trkpt lat="45.23448" lon="5.59252">
        <ele>1576</ele>
        <time>2014-08-29T09:19:01Z</time>
      </trkpt>
      <trkpt lat="45.23448" lon="5.59262">
        <ele>1576.6</ele>
        <time>2014-08-29T09:19:03Z</time>
      </trkpt>
      <trkpt lat="45.23437" lon="5.59278">
        <ele>1578</ele>
        <time>2014-08-29T09:19:09Z</time>
      </trkpt>
      <trkpt lat="45.23432" lon="5.59302">
        <ele>1579.7</ele>
        <time>2014-08-29T09:19:15Z</time>
      </trkpt>
      <trkpt lat="45.23442" lon="5.59327">
        <ele>1581</ele>
        <time>2014-08-29T09:19:21Z</time>
      </trkpt>
      <trkpt lat="45.23538" lon="5.59427">
        <ele>1589.5</ele>
        <time>2014-08-29T09:20:08Z</time>
      </trkpt>
      <trkpt lat="45.2356" lon="5.59467">
        <ele>1593.2</ele>
        <time>2014-08-29T09:20:34Z</time>
      </trkpt>
      <trkpt lat="45.23559" lon="5.59469">
        <ele>1593.6</ele>
        <time>2014-08-29T09:20:47Z</time>
      </trkpt>
      <trkpt lat="45.23556" lon="5.59469">
        <ele>1593.7</ele>
        <time>2014-08-29T09:31:35Z</time>
      </trkpt>
      <trkpt lat="45.23548" lon="5.5948">
        <ele>1596</ele>
        <time>2014-08-29T09:31:41Z</time>
      </trkpt>
      <trkpt lat="45.23509" lon="5.59497">
        <ele>1603.9</ele>
        <time>2014-08-29T09:32:04Z</time>
      </trkpt>
      <trkpt lat="45.23494" lon="5.59497">
        <ele>1605.6</ele>
        <time>2014-08-29T09:32:15Z</time>
      </trkpt>
      <trkpt lat="45.23468" lon="5.59474">
        <ele>1602.3</ele>
        <time>2014-08-29T09:32:23Z</time>
      </trkpt>
      <trkpt lat="45.23456" lon="5.59475">
        <ele>1603.1</ele>
        <time>2014-08-29T09:32:26Z</time>
      </trkpt>
      <trkpt lat="45.23448" lon="5.59481">
        <ele>1604.8</ele>
        <time>2014-08-29T09:32:30Z</time>
      </trkpt>
      <trkpt lat="45.23442" lon="5.59491">
        <ele>1607.1</ele>
        <time>2014-08-29T09:32:37Z</time>
      </trkpt>
      <trkpt lat="45.23432" lon="5.595">
        <ele>1609.3</ele>
        <time>2014-08-29T09:32:45Z</time>
      </trkpt>
      <trkpt lat="45.23404" lon="5.59536">
        <ele>1616</ele>
        <time>2014-08-29T09:33:05Z</time>
      </trkpt>
      <trkpt lat="45.23397" lon="5.5954">
        <ele>1616.8</ele>
        <time>2014-08-29T09:33:10Z</time>
      </trkpt>
      <trkpt lat="45.23358" lon="5.59535">
        <ele>1617</ele>
        <time>2014-08-29T09:33:27Z</time>
      </trkpt>
      <trkpt lat="45.23349" lon="5.5954">
        <ele>1617.9</ele>
        <time>2014-08-29T09:33:33Z</time>
      </trkpt>
      <trkpt lat="45.23344" lon="5.59547">
        <ele>1619</ele>
        <time>2014-08-29T09:33:39Z</time>
      </trkpt>
      <trkpt lat="45.23338" lon="5.59547">
        <ele>1619.2</ele>
        <time>2014-08-29T09:33:44Z</time>
      </trkpt>
      <trkpt lat="45.23286" lon="5.59503">
        <ele>1615.5</ele>
        <time>2014-08-29T09:34:04Z</time>
      </trkpt>
      <trkpt lat="45.23275" lon="5.595">
        <ele>1615.8</ele>
        <time>2014-08-29T09:34:07Z</time>
      </trkpt>
      <trkpt lat="45.23267" lon="5.59504">
        <ele>1616.4</ele>
        <time>2014-08-29T09:34:10Z</time>
      </trkpt>
      <trkpt lat="45.23254" lon="5.59519">
        <ele>1617.6</ele>
        <time>2014-08-29T09:34:16Z</time>
      </trkpt>
      <trkpt lat="45.23233" lon="5.59529">
        <ele>1617.8</ele>
        <time>2014-08-29T09:34:22Z</time>
      </trkpt>
      <trkpt lat="45.23219" lon="5.59549">
        <ele>1617.8</ele>
        <time>2014-08-29T09:34:25Z</time>
      </trkpt>
      <trkpt lat="45.23208" lon="5.59559">
        <ele>1617.5</ele>
        <time>2014-08-29T09:34:30Z</time>
      </trkpt>
      <trkpt lat="45.23119" lon="5.59427">
        <ele>1609.4</ele>
        <time>2014-08-29T09:35:02Z</time>
      </trkpt>
      <trkpt lat="45.23091" lon="5.59408">
        <ele>1608.1</ele>
        <time>2014-08-29T09:35:07Z</time>
      </trkpt>
      <trkpt lat="45.23052" lon="5.594">
        <ele>1609</ele>
        <time>2014-08-29T09:35:14Z</time>
      </trkpt>
      <trkpt lat="45.2303" lon="5.59383">
        <ele>1609.2</ele>
        <time>2014-08-29T09:35:21Z</time>
      </trkpt>
      <trkpt lat="45.23014" lon="5.59381">
        <ele>1610.2</ele>
        <time>2014-08-29T09:35:25Z</time>
      </trkpt>
      <trkpt lat="45.22996" lon="5.59357">
        <ele>1610.6</ele>
        <time>2014-08-29T09:35:31Z</time>
      </trkpt>
      <trkpt lat="45.22991" lon="5.59356">
        <ele>1610.6</ele>
        <time>2014-08-29T09:35:33Z</time>
      </trkpt>
      <trkpt lat="45.22974" lon="5.59361">
        <ele>1610.9</ele>
        <time>2014-08-29T09:35:40Z</time>
      </trkpt>
      <trkpt lat="45.22951" lon="5.59348">
        <ele>1610.8</ele>
        <time>2014-08-29T09:35:46Z</time>
      </trkpt>
      <trkpt lat="45.2289" lon="5.59383">
        <ele>1612.2</ele>
        <time>2014-08-29T09:36:06Z</time>
      </trkpt>
      <trkpt lat="45.2287" lon="5.59384">
        <ele>1612.6</ele>
        <time>2014-08-29T09:36:11Z</time>
      </trkpt>
      <trkpt lat="45.22861" lon="5.5939">
        <ele>1612.8</ele>
        <time>2014-08-29T09:36:15Z</time>
      </trkpt>
      <trkpt lat="45.22853" lon="5.59381">
        <ele>1613</ele>
        <time>2014-08-29T09:36:50Z</time>
      </trkpt>
      <trkpt lat="45.22859" lon="5.5938">
        <ele>1612.9</ele>
        <time>2014-08-29T09:37:53Z</time>
      </trkpt>
      <trkpt lat="45.22871" lon="5.59361">
        <ele>1612.6</ele>
        <time>2014-08-29T09:38:06Z</time>
      </trkpt>
      <trkpt lat="45.22879" lon="5.59357">
        <ele>1612.4</ele>
        <time>2014-08-29T09:39:00Z</time>
      </trkpt>
      <trkpt lat="45.22861" lon="5.59381">
        <ele>1612.8</ele>
        <time>2014-08-29T10:53:49Z</time>
      </trkpt>
      <trkpt lat="45.22855" lon="5.59383">
        <ele>1612.9</ele>
        <time>2014-08-29T10:53:51Z</time>
      </trkpt>
      <trkpt lat="45.22837" lon="5.59372">
        <ele>1613.5</ele>
        <time>2014-08-29T10:53:58Z</time>
      </trkpt>
      <trkpt lat="45.22825" lon="5.59369">
        <ele>1613.3</ele>
        <time>2014-08-29T10:54:02Z</time>
      </trkpt>
      <trkpt lat="45.22761" lon="5.59383">
        <ele>1610.8</ele>
        <time>2014-08-29T10:54:18Z</time>
      </trkpt>
      <trkpt lat="45.2276" lon="5.59387">
        <ele>1610.7</ele>
        <time>2014-08-29T10:54:22Z</time>
      </trkpt>
      <trkpt lat="45.22754" lon="5.59387">
        <ele>1610.5</ele>
        <time>2014-08-29T10:54:25Z</time>
      </trkpt>
      <trkpt lat="45.22739" lon="5.59397">
        <ele>1610.2</ele>
        <time>2014-08-29T10:54:31Z</time>
      </trkpt>
      <trkpt lat="45.22729" lon="5.594">
        <ele>1610.2</ele>
        <time>2014-08-29T10:54:34Z</time>
      </trkpt>
      <trkpt lat="45.22717" lon="5.59398">
        <ele>1610.1</ele>
        <time>2014-08-29T10:54:37Z</time>
      </trkpt>
      <trkpt lat="45.22706" lon="5.59392">
        <ele>1610.1</ele>
        <time>2014-08-29T10:54:40Z</time>
      </trkpt>
      <trkpt lat="45.22695" lon="5.59377">
        <ele>1610.2</ele>
        <time>2014-08-29T10:54:44Z</time>
      </trkpt>
      <trkpt lat="45.2268" lon="5.59375">
        <ele>1610.1</ele>
        <time>2014-08-29T10:54:49Z</time>
      </trkpt>
      <trkpt lat="45.22657" lon="5.59391">
        <ele>1610.2</ele>
        <time>2014-08-29T10:54:56Z</time>
      </trkpt>
      <trkpt lat="45.22603" lon="5.59389">
        <ele>1611.5</ele>
        <time>2014-08-29T10:55:10Z</time>
      </trkpt>
      <trkpt lat="45.22592" lon="5.59384">
        <ele>1611.8</ele>
        <time>2014-08-29T10:55:13Z</time>
      </trkpt>
      <trkpt lat="45.22392" lon="5.59364">
        <ele>1618.2</ele>
        <time>2014-08-29T10:56:04Z</time>
      </trkpt>
      <trkpt lat="45.22357" lon="5.59376">
        <ele>1618.9</ele>
        <time>2014-08-29T10:56:14Z</time>
      </trkpt>
      <trkpt lat="45.22298" lon="5.59354">
        <ele>1620.8</ele>
        <time>2014-08-29T10:56:38Z</time>
      </trkpt>
      <trkpt lat="45.22192" lon="5.59236">
        <ele>1609.1</ele>
        <time>2014-08-29T10:57:04Z</time>
      </trkpt>
      <trkpt lat="45.22178" lon="5.5923">
        <ele>1607.8</ele>
        <time>2014-08-29T10:57:06Z</time>
      </trkpt>
      <trkpt lat="45.22093" lon="5.59245">
        <ele>1609.9</ele>
        <time>2014-08-29T10:57:19Z</time>
      </trkpt>
      <trkpt lat="45.22063" lon="5.59238">
        <ele>1607.1</ele>
        <time>2014-08-29T10:57:24Z</time>
      </trkpt>
      <trkpt lat="45.22045" lon="5.59239">
        <ele>1606.2</ele>
        <time>2014-08-29T10:57:27Z</time>
      </trkpt>
      <trkpt lat="45.22003" lon="5.59254">
        <ele>1605.7</ele>
        <time>2014-08-29T10:57:34Z</time>
      </trkpt>
      <trkpt lat="45.21943" lon="5.59253">
        <ele>1600.5</ele>
        <time>2014-08-29T10:57:43Z</time>
      </trkpt>
      <trkpt lat="45.21911" lon="5.59267">
        <ele>1599.5</ele>
        <time>2014-08-29T10:57:49Z</time>
      </trkpt>
      <trkpt lat="45.21826" lon="5.59267">
        <ele>1598.3</ele>
        <time>2014-08-29T10:58:07Z</time>
      </trkpt>
      <trkpt lat="45.21821" lon="5.5927">
        <ele>1598.1</ele>
        <time>2014-08-29T10:58:08Z</time>
      </trkpt>
      <trkpt lat="45.21724" lon="5.59433">
        <ele>1589.1</ele>
        <time>2014-08-29T10:58:25Z</time>
      </trkpt>
      <trkpt lat="45.2171" lon="5.59439">
        <ele>1590.2</ele>
        <time>2014-08-29T10:58:27Z</time>
      </trkpt>
      <trkpt lat="45.21668" lon="5.59398">
        <ele>1597</ele>
        <time>2014-08-29T10:58:45Z</time>
      </trkpt>
      <trkpt lat="45.2166" lon="5.5938">
        <ele>1599.9</ele>
        <time>2014-08-29T10:58:55Z</time>
      </trkpt>
      <trkpt lat="45.2166" lon="5.59295">
        <ele>1602.2</ele>
        <time>2014-08-29T10:59:23Z</time>
      </trkpt>
      <trkpt lat="45.21605" lon="5.59192">
        <ele>1611.7</ele>
        <time>2014-08-29T10:59:56Z</time>
      </trkpt>
      <trkpt lat="45.21599" lon="5.59192">
        <ele>1612.7</ele>
        <time>2014-08-29T11:00:00Z</time>
      </trkpt>
      <trkpt lat="45.21591" lon="5.5917">
        <ele>1612.3</ele>
        <time>2014-08-29T11:00:07Z</time>
      </trkpt>
      <trkpt lat="45.21562" lon="5.59152">
        <ele>1616.2</ele>
        <time>2014-08-29T11:00:17Z</time>
      </trkpt>
      <trkpt lat="45.21548" lon="5.59154">
        <ele>1617.6</ele>
        <time>2014-08-29T11:00:22Z</time>
      </trkpt>
      <trkpt lat="45.21516" lon="5.59144">
        <ele>1621.6</ele>
        <time>2014-08-29T11:00:33Z</time>
      </trkpt>
      <trkpt lat="45.21512" lon="5.59145">
        <ele>1622</ele>
        <time>2014-08-29T11:00:35Z</time>
      </trkpt>
      <trkpt lat="45.21494" lon="5.5916">
        <ele>1622.9</ele>
        <time>2014-08-29T11:00:48Z</time>
      </trkpt>
      <trkpt lat="45.21487" lon="5.59157">
        <ele>1623.6</ele>
        <time>2014-08-29T11:00:52Z</time>
      </trkpt>
      <trkpt lat="45.2132" lon="5.58997">
        <ele>1632.9</ele>
        <time>2014-08-29T11:02:37Z</time>
      </trkpt>
      <trkpt lat="45.21305" lon="5.58999">
        <ele>1633.7</ele>
        <time>2014-08-29T11:02:45Z</time>
      </trkpt>
      <trkpt lat="45.21274" lon="5.59016">
        <ele>1635.2</ele>
        <time>2014-08-29T11:03:05Z</time>
      </trkpt>
      <trkpt lat="45.21249" lon="5.59019">
        <ele>1636.5</ele>
        <time>2014-08-29T11:03:20Z</time>
      </trkpt>
      <trkpt lat="45.2124" lon="5.59025">
        <ele>1636.5</ele>
        <time>2014-08-29T11:03:40Z</time>
      </trkpt>
      <trkpt lat="45.21221" lon="5.59031">
        <ele>1636.4</ele>
        <time>2014-08-29T11:03:46Z</time>
      </trkpt>
      <trkpt lat="45.21173" lon="5.59025">
        <ele>1637.1</ele>
        <time>2014-08-29T11:03:59Z</time>
      </trkpt>
      <trkpt lat="45.21138" lon="5.59009">
        <ele>1635.1</ele>
        <time>2014-08-29T11:04:08Z</time>
      </trkpt>
      <trkpt lat="45.21129" lon="5.58999">
        <ele>1634.5</ele>
        <time>2014-08-29T11:04:10Z</time>
      </trkpt>
      <trkpt lat="45.21119" lon="5.58972">
        <ele>1633.6</ele>
        <time>2014-08-29T11:04:14Z</time>
      </trkpt>
      <trkpt lat="45.21117" lon="5.58971">
        <ele>1633.3</ele>
        <time>2014-08-29T11:04:15Z</time>
      </trkpt>
      <trkpt lat="45.21115" lon="5.58956">
        <ele>1633.2</ele>
        <time>2014-08-29T11:04:26Z</time>
      </trkpt>
      <trkpt lat="45.21107" lon="5.58951">
        <ele>1632.2</ele>
        <time>2014-08-29T11:04:29Z</time>
      </trkpt>
      <trkpt lat="45.21098" lon="5.58956">
        <ele>1630.9</ele>
        <time>2014-08-29T11:04:42Z</time>
      </trkpt>
      <trkpt lat="45.21085" lon="5.58971">
        <ele>1629.2</ele>
        <time>2014-08-29T11:06:41Z</time>
      </trkpt>
      <trkpt lat="45.21064" lon="5.59029">
        <ele>1626.8</ele>
        <time>2014-08-29T11:06:49Z</time>
      </trkpt>
      <trkpt lat="45.21047" lon="5.59052">
        <ele>1626.1</ele>
        <time>2014-08-29T11:06:59Z</time>
      </trkpt>
      <trkpt lat="45.21037" lon="5.59053">
        <ele>1625.6</ele>
        <time>2014-08-29T11:14:24Z</time>
      </trkpt>
      <trkpt lat="45.21023" lon="5.59062">
        <ele>1625.5</ele>
        <time>2014-08-29T11:14:29Z</time>
      </trkpt>
      <trkpt lat="45.21012" lon="5.59079">
        <ele>1626.7</ele>
        <time>2014-08-29T11:14:33Z</time>
      </trkpt>
      <trkpt lat="45.20999" lon="5.59133">
        <ele>1625.2</ele>
        <time>2014-08-29T11:14:45Z</time>
      </trkpt>
      <trkpt lat="45.21" lon="5.59159">
        <ele>1624.3</ele>
        <time>2014-08-29T11:14:51Z</time>
      </trkpt>
      <trkpt lat="45.20992" lon="5.59171">
        <ele>1623.6</ele>
        <time>2014-08-29T11:14:54Z</time>
      </trkpt>
      <trkpt lat="45.20942" lon="5.59173">
        <ele>1622.2</ele>
        <time>2014-08-29T11:15:05Z</time>
      </trkpt>
      <trkpt lat="45.20889" lon="5.59116">
        <ele>1623.4</ele>
        <time>2014-08-29T11:15:16Z</time>
      </trkpt>
      <trkpt lat="45.20855" lon="5.59104">
        <ele>1623.2</ele>
        <time>2014-08-29T11:15:21Z</time>
      </trkpt>
      <trkpt lat="45.20836" lon="5.59104">
        <ele>1622.8</ele>
        <time>2014-08-29T11:15:24Z</time>
      </trkpt>
      <trkpt lat="45.20732" lon="5.59164">
        <ele>1623</ele>
        <time>2014-08-29T11:15:41Z</time>
      </trkpt>
      <trkpt lat="45.20705" lon="5.59215">
        <ele>1621.3</ele>
        <time>2014-08-29T11:15:53Z</time>
      </trkpt>
      <trkpt lat="45.20697" lon="5.59219">
        <ele>1621.3</ele>
        <time>2014-08-29T11:15:55Z</time>
      </trkpt>
      <trkpt lat="45.20679" lon="5.5922">
        <ele>1621.5</ele>
        <time>2014-08-29T11:16:00Z</time>
      </trkpt>
      <trkpt lat="45.20629" lon="5.59209">
        <ele>1624</ele>
        <time>2014-08-29T11:16:14Z</time>
      </trkpt>
      <trkpt lat="45.20622" lon="5.5921">
        <ele>1624.4</ele>
        <time>2014-08-29T11:16:16Z</time>
      </trkpt>
      <trkpt lat="45.20499" lon="5.59296">
        <ele>1626.8</ele>
        <time>2014-08-29T11:16:47Z</time>
      </trkpt>
      <trkpt lat="45.20484" lon="5.59312">
        <ele>1626</ele>
        <time>2014-08-29T11:16:54Z</time>
      </trkpt>
      <trkpt lat="45.20475" lon="5.59316">
        <ele>1625.8</ele>
        <time>2014-08-29T11:17:06Z</time>
      </trkpt>
      <trkpt lat="45.20452" lon="5.59306">
        <ele>1626.1</ele>
        <time>2014-08-29T11:17:18Z</time>
      </trkpt>
      <trkpt lat="45.20395" lon="5.59305">
        <ele>1626.4</ele>
        <time>2014-08-29T11:17:38Z</time>
      </trkpt>
      <trkpt lat="45.1987" lon="5.59181">
        <ele>1631.3</ele>
        <time>2014-08-29T11:19:37Z</time>
      </trkpt>
      <trkpt lat="45.19845" lon="5.59194">
        <ele>1631.1</ele>
        <time>2014-08-29T11:19:43Z</time>
      </trkpt>
      <trkpt lat="45.19813" lon="5.59189">
        <ele>1632.8</ele>
        <time>2014-08-29T11:19:52Z</time>
      </trkpt>
      <trkpt lat="45.19793" lon="5.59203">
        <ele>1633</ele>
        <time>2014-08-29T11:20:03Z</time>
      </trkpt>
      <trkpt lat="45.19792" lon="5.59199">
        <ele>1633.3</ele>
        <time>2014-08-29T11:32:57Z</time>
      </trkpt>
      <trkpt lat="45.19691" lon="5.59172">
        <ele>1647</ele>
        <time>2014-08-29T11:33:57Z</time>
      </trkpt>
      <trkpt lat="45.19684" lon="5.59166">
        <ele>1649.1</ele>
        <time>2014-08-29T11:34:04Z</time>
      </trkpt>
      <trkpt lat="45.19649" lon="5.5916">
        <ele>1652.4</ele>
        <time>2014-08-29T11:34:26Z</time>
      </trkpt>
      <trkpt lat="45.19528" lon="5.59191">
        <ele>1656.1</ele>
        <time>2014-08-29T11:35:06Z</time>
      </trkpt>
      <trkpt lat="45.19505" lon="5.59206">
        <ele>1657.1</ele>
        <time>2014-08-29T11:35:12Z</time>
      </trkpt>
      <trkpt lat="45.19459" lon="5.59213">
        <ele>1654.8</ele>
        <time>2014-08-29T11:35:22Z</time>
      </trkpt>
      <trkpt lat="45.1943" lon="5.59241">
        <ele>1654.5</ele>
        <time>2014-08-29T11:35:30Z</time>
      </trkpt>
      <trkpt lat="45.19381" lon="5.59247">
        <ele>1650.5</ele>
        <time>2014-08-29T11:35:40Z</time>
      </trkpt>
      <trkpt lat="45.19141" lon="5.59187">
        <ele>1654</ele>
        <time>2014-08-29T11:36:37Z</time>
      </trkpt>
      <trkpt lat="45.19111" lon="5.59166">
        <ele>1664.7</ele>
        <time>2014-08-29T11:36:56Z</time>
      </trkpt>
      <trkpt lat="45.19088" lon="5.59164">
        <ele>1668.3</ele>
        <time>2014-08-29T11:37:13Z</time>
      </trkpt>
      <trkpt lat="45.19068" lon="5.59153">
        <ele>1670.5</ele>
        <time>2014-08-29T11:37:30Z</time>
      </trkpt>
      <trkpt lat="45.18976" lon="5.5913">
        <ele>1682.1</ele>
        <time>2014-08-29T11:38:26Z</time>
      </trkpt>
      <trkpt lat="45.18941" lon="5.59136">
        <ele>1683.6</ele>
        <time>2014-08-29T11:38:41Z</time>
      </trkpt>
      <trkpt lat="45.18929" lon="5.59134">
        <ele>1684.7</ele>
        <time>2014-08-29T11:38:47Z</time>
      </trkpt>
      <trkpt lat="45.18915" lon="5.59139">
        <ele>1685.1</ele>
        <time>2014-08-29T11:38:55Z</time>
      </trkpt>
      <trkpt lat="45.18862" lon="5.59132">
        <ele>1690.2</ele>
        <time>2014-08-29T11:39:19Z</time>
      </trkpt>
      <trkpt lat="45.18819" lon="5.59149">
        <ele>1691.5</ele>
        <time>2014-08-29T11:39:45Z</time>
      </trkpt>
      <trkpt lat="45.18789" lon="5.59184">
        <ele>1689.4</ele>
        <time>2014-08-29T11:41:10Z</time>
      </trkpt>
      <trkpt lat="45.18778" lon="5.59191">
        <ele>1690.2</ele>
        <time>2014-08-29T11:41:15Z</time>
      </trkpt>
      <trkpt lat="45.18754" lon="5.59194">
        <ele>1696.3</ele>
        <time>2014-08-29T11:41:24Z</time>
      </trkpt>
      <trkpt lat="45.18736" lon="5.59215">
        <ele>1694.3</ele>
        <time>2014-08-29T11:41:30Z</time>
      </trkpt>
      <trkpt lat="45.18723" lon="5.59223">
        <ele>1694.2</ele>
        <time>2014-08-29T11:41:35Z</time>
      </trkpt>
      <trkpt lat="45.18721" lon="5.59228">
        <ele>1693.4</ele>
        <time>2014-08-29T11:41:37Z</time>
      </trkpt>
      <trkpt lat="45.1871" lon="5.59234">
        <ele>1693.6</ele>
        <time>2014-08-29T11:41:41Z</time>
      </trkpt>
      <trkpt lat="45.18689" lon="5.59261">
        <ele>1687.4</ele>
        <time>2014-08-29T11:41:49Z</time>
      </trkpt>
      <trkpt lat="45.18681" lon="5.59262">
        <ele>1688.1</ele>
        <time>2014-08-29T11:41:51Z</time>
      </trkpt>
      <trkpt lat="45.18644" lon="5.59241">
        <ele>1691.1</ele>
        <time>2014-08-29T11:42:05Z</time>
      </trkpt>
      <trkpt lat="45.18598" lon="5.59173">
        <ele>1703.3</ele>
        <time>2014-08-29T11:58:47Z</time>
      </trkpt>
      <trkpt lat="45.18581" lon="5.5916">
        <ele>1703.9</ele>
        <time>2014-08-29T11:58:52Z</time>
      </trkpt>
      <trkpt lat="45.18569" lon="5.59142">
        <ele>1700.4</ele>
        <time>2014-08-29T11:58:57Z</time>
      </trkpt>
      <trkpt lat="45.18564" lon="5.59116">
        <ele>1702.9</ele>
        <time>2014-08-29T11:59:03Z</time>
      </trkpt>
      <trkpt lat="45.1855" lon="5.59109">
        <ele>1698.7</ele>
        <time>2014-08-29T11:59:07Z</time>
      </trkpt>
      <trkpt lat="45.18484" lon="5.59019">
        <ele>1691.7</ele>
        <time>2014-08-29T11:59:26Z</time>
      </trkpt>
      <trkpt lat="45.18482" lon="5.59">
        <ele>1694.7</ele>
        <time>2014-08-29T11:59:28Z</time>
      </trkpt>
      <trkpt lat="45.18329" lon="5.58811">
        <ele>1675.6</ele>
        <time>2014-08-29T12:00:03Z</time>
      </trkpt>
      <trkpt lat="45.18263" lon="5.58784">
        <ele>1662.2</ele>
        <time>2014-08-29T12:00:12Z</time>
      </trkpt>
      <trkpt lat="45.18242" lon="5.58751">
        <ele>1666.2</ele>
        <time>2014-08-29T12:00:18Z</time>
      </trkpt>
      <trkpt lat="45.17979" lon="5.58583">
        <ele>1657.5</ele>
        <time>2014-08-29T12:00:57Z</time>
      </trkpt>
      <trkpt lat="45.17944" lon="5.58578">
        <ele>1658.3</ele>
        <time>2014-08-29T12:01:04Z</time>
      </trkpt>
      <trkpt lat="45.17938" lon="5.5858">
        <ele>1658.5</ele>
        <time>2014-08-29T12:01:06Z</time>
      </trkpt>
      <trkpt lat="45.17909" lon="5.58574">
        <ele>1660.1</ele>
        <time>2014-08-29T12:01:18Z</time>
      </trkpt>
      <trkpt lat="45.17899" lon="5.58576">
        <ele>1661.2</ele>
        <time>2014-08-29T12:01:21Z</time>
      </trkpt>
      <trkpt lat="45.17884" lon="5.58573">
        <ele>1663.1</ele>
        <time>2014-08-29T12:01:27Z</time>
      </trkpt>
      <trkpt lat="45.17876" lon="5.58576">
        <ele>1664</ele>
        <time>2014-08-29T12:01:31Z</time>
      </trkpt>
      <trkpt lat="45.17857" lon="5.586">
        <ele>1661</ele>
        <time>2014-08-29T12:01:44Z</time>
      </trkpt>
      <trkpt lat="45.1784" lon="5.58603">
        <ele>1662.2</ele>
        <time>2014-08-29T12:01:51Z</time>
      </trkpt>
      <trkpt lat="45.17822" lon="5.58614">
        <ele>1660.9</ele>
        <time>2014-08-29T12:02:02Z</time>
      </trkpt>
      <trkpt lat="45.17796" lon="5.58622">
        <ele>1661.5</ele>
        <time>2014-08-29T12:02:16Z</time>
      </trkpt>
      <trkpt lat="45.17777" lon="5.58638">
        <ele>1660</ele>
        <time>2014-08-29T12:02:26Z</time>
      </trkpt>
      <trkpt lat="45.17768" lon="5.58637">
        <ele>1661.4</ele>
        <time>2014-08-29T12:02:30Z</time>
      </trkpt>
      <trkpt lat="45.17718" lon="5.58645">
        <ele>1665.8</ele>
        <time>2014-08-29T12:02:48Z</time>
      </trkpt>
      <trkpt lat="45.1771" lon="5.58651">
        <ele>1665.7</ele>
        <time>2014-08-29T12:02:51Z</time>
      </trkpt>
      <trkpt lat="45.17685" lon="5.58651">
        <ele>1668.7</ele>
        <time>2014-08-29T12:03:02Z</time>
      </trkpt>
      <trkpt lat="45.17676" lon="5.58647">
        <ele>1670.5</ele>
        <time>2014-08-29T12:03:07Z</time>
      </trkpt>
      <trkpt lat="45.17669" lon="5.58646">
        <ele>1671.4</ele>
        <time>2014-08-29T12:03:12Z</time>
      </trkpt>
      <trkpt lat="45.17644" lon="5.58634">
        <ele>1672.7</ele>
        <time>2014-08-29T12:03:26Z</time>
      </trkpt>
      <trkpt lat="45.17638" lon="5.58628">
        <ele>1673.7</ele>
        <time>2014-08-29T12:03:30Z</time>
      </trkpt>
      <trkpt lat="45.17627" lon="5.58626">
        <ele>1673.9</ele>
        <time>2014-08-29T12:03:38Z</time>
      </trkpt>
      <trkpt lat="45.17623" lon="5.58621">
        <ele>1675.1</ele>
        <time>2014-08-29T12:03:42Z</time>
      </trkpt>
      <trkpt lat="45.17595" lon="5.5863">
        <ele>1671.4</ele>
        <time>2014-08-29T12:04:13Z</time>
      </trkpt>
      <trkpt lat="45.17601" lon="5.58628">
        <ele>1672.4</ele>
        <time>2014-08-29T12:04:17Z</time>
      </trkpt>
      <trkpt lat="45.17606" lon="5.58622">
        <ele>1674.2</ele>
        <time>2014-08-29T12:04:20Z</time>
      </trkpt>
      <trkpt lat="45.17602" lon="5.58608">
        <ele>1678.2</ele>
        <time>2014-08-29T12:04:24Z</time>
      </trkpt>
      <trkpt lat="45.1754" lon="5.58573">
        <ele>1679</ele>
        <time>2014-08-29T12:04:45Z</time>
      </trkpt>
      <trkpt lat="45.17529" lon="5.58561">
        <ele>1678.6</ele>
        <time>2014-08-29T12:04:49Z</time>
      </trkpt>
      <trkpt lat="45.17515" lon="5.58553">
        <ele>1677.8</ele>
        <time>2014-08-29T12:04:52Z</time>
      </trkpt>
      <trkpt lat="45.17479" lon="5.58548">
        <ele>1673</ele>
        <time>2014-08-29T12:04:58Z</time>
      </trkpt>
      <trkpt lat="45.17471" lon="5.58551">
        <ele>1671.1</ele>
        <time>2014-08-29T12:05:00Z</time>
      </trkpt>
      <trkpt lat="45.1744" lon="5.58541">
        <ele>1667.9</ele>
        <time>2014-08-29T12:05:08Z</time>
      </trkpt>
      <trkpt lat="45.1743" lon="5.5854">
        <ele>1666.2</ele>
        <time>2014-08-29T12:05:12Z</time>
      </trkpt>
      <trkpt lat="45.17428" lon="5.58536">
        <ele>1666.9</ele>
        <time>2014-08-29T12:05:15Z</time>
      </trkpt>
      <trkpt lat="45.17428" lon="5.58538">
        <ele>1666.5</ele>
        <time>2014-08-29T12:05:19Z</time>
      </trkpt>
      <trkpt lat="45.17428" lon="5.58534">
        <ele>1667.4</ele>
        <time>2014-08-29T12:15:42Z</time>
      </trkpt>
      <trkpt lat="45.17412" lon="5.58509">
        <ele>1670.8</ele>
        <time>2014-08-29T12:15:49Z</time>
      </trkpt>
      <trkpt lat="45.17351" lon="5.58464">
        <ele>1657.2</ele>
        <time>2014-08-29T12:16:05Z</time>
      </trkpt>
      <trkpt lat="45.17348" lon="5.58466">
        <ele>1655.9</ele>
        <time>2014-08-29T12:16:07Z</time>
      </trkpt>
      <trkpt lat="45.17342" lon="5.58465">
        <ele>1654.1</ele>
        <time>2014-08-29T12:16:12Z</time>
      </trkpt>
      <trkpt lat="45.17299" lon="5.58406">
        <ele>1654</ele>
        <time>2014-08-29T12:16:31Z</time>
      </trkpt>
      <trkpt lat="45.17298" lon="5.58395">
        <ele>1653.6</ele>
        <time>2014-08-29T12:16:38Z</time>
      </trkpt>
      <trkpt lat="45.1738" lon="5.58314">
        <ele>1660.5</ele>
        <time>2014-08-29T12:18:41Z</time>
      </trkpt>
      <trkpt lat="45.17474" lon="5.58111">
        <ele>1622.1</ele>
        <time>2014-08-29T12:19:26Z</time>
      </trkpt>
      <trkpt lat="45.17486" lon="5.58097">
        <ele>1623.5</ele>
        <time>2014-08-29T12:19:28Z</time>
      </trkpt>
      <trkpt lat="45.17526" lon="5.5807">
        <ele>1624.5</ele>
        <time>2014-08-29T12:19:37Z</time>
      </trkpt>
      <trkpt lat="45.17536" lon="5.58066">
        <ele>1624</ele>
        <time>2014-08-29T12:19:40Z</time>
      </trkpt>
      <trkpt lat="45.1754" lon="5.58059">
        <ele>1622.9</ele>
        <time>2014-08-29T12:19:43Z</time>
      </trkpt>
      <trkpt lat="45.17533" lon="5.58041">
        <ele>1619.4</ele>
        <time>2014-08-29T12:19:47Z</time>
      </trkpt>
      <trkpt lat="45.17506" lon="5.58019">
        <ele>1613.6</ele>
        <time>2014-08-29T12:19:52Z</time>
      </trkpt>
      <trkpt lat="45.17503" lon="5.58007">
        <ele>1610.9</ele>
        <time>2014-08-29T12:19:54Z</time>
      </trkpt>
      <trkpt lat="45.1753" lon="5.57978">
        <ele>1607.3</ele>
        <time>2014-08-29T12:20:04Z</time>
      </trkpt>
      <trkpt lat="45.1753" lon="5.57975">
        <ele>1606.7</ele>
        <time>2014-08-29T12:20:06Z</time>
      </trkpt>
      <trkpt lat="45.17509" lon="5.57952">
        <ele>1599.6</ele>
        <time>2014-08-29T12:20:13Z</time>
      </trkpt>
      <trkpt lat="45.17508" lon="5.57945">
        <ele>1597.9</ele>
        <time>2014-08-29T12:20:14Z</time>
      </trkpt>
      <trkpt lat="45.17515" lon="5.57922">
        <ele>1593.8</ele>
        <time>2014-08-29T12:20:17Z</time>
      </trkpt>
      <trkpt lat="45.17531" lon="5.57898">
        <ele>1591.2</ele>
        <time>2014-08-29T12:20:22Z</time>
      </trkpt>
      <trkpt lat="45.17532" lon="5.57893">
        <ele>1590.5</ele>
        <time>2014-08-29T12:20:25Z</time>
      </trkpt>
      <trkpt lat="45.17501" lon="5.5787">
        <ele>1582.8</ele>
        <time>2014-08-29T12:20:35Z</time>
      </trkpt>
      <trkpt lat="45.1753" lon="5.57818">
        <ele>1576.7</ele>
        <time>2014-08-29T12:22:28Z</time>
      </trkpt>
      <trkpt lat="45.17544" lon="5.57804">
        <ele>1575</ele>
        <time>2014-08-29T12:22:32Z</time>
      </trkpt>
      <trkpt lat="45.17544" lon="5.57799">
        <ele>1573.8</ele>
        <time>2014-08-29T12:22:34Z</time>
      </trkpt>
      <trkpt lat="45.17491" lon="5.5776">
        <ele>1555.3</ele>
        <time>2014-08-29T12:22:46Z</time>
      </trkpt>
      <trkpt lat="45.17491" lon="5.57756">
        <ele>1554.2</ele>
        <time>2014-08-29T12:22:47Z</time>
      </trkpt>
      <trkpt lat="45.17508" lon="5.57735">
        <ele>1555.9</ele>
        <time>2014-08-29T12:22:52Z</time>
      </trkpt>
      <trkpt lat="45.17533" lon="5.57727">
        <ele>1555.5</ele>
        <time>2014-08-29T12:22:57Z</time>
      </trkpt>
      <trkpt lat="45.17536" lon="5.57724">
        <ele>1554.9</ele>
        <time>2014-08-29T12:23:00Z</time>
      </trkpt>
      <trkpt lat="45.17535" lon="5.5772">
        <ele>1554</ele>
        <time>2014-08-29T12:23:02Z</time>
      </trkpt>
      <trkpt lat="45.17453" lon="5.57613">
        <ele>1516.1</ele>
        <time>2014-08-29T12:27:16Z</time>
      </trkpt>
      <trkpt lat="45.17449" lon="5.57612">
        <ele>1514.4</ele>
        <time>2014-08-29T12:27:18Z</time>
      </trkpt>
      <trkpt lat="45.17442" lon="5.57618">
        <ele>1512.5</ele>
        <time>2014-08-29T12:27:20Z</time>
      </trkpt>
      <trkpt lat="45.17396" lon="5.57769">
        <ele>1501.7</ele>
        <time>2014-08-29T12:28:20Z</time>
      </trkpt>
      <trkpt lat="45.17303" lon="5.57843">
        <ele>1478.7</ele>
        <time>2014-08-29T12:28:50Z</time>
      </trkpt>
      <trkpt lat="45.17314" lon="5.57818">
        <ele>1474.5</ele>
        <time>2014-08-29T12:29:00Z</time>
      </trkpt>
      <trkpt lat="45.17312" lon="5.57812">
        <ele>1472.4</ele>
        <time>2014-08-29T12:29:02Z</time>
      </trkpt>
      <trkpt lat="45.17309" lon="5.57813">
        <ele>1471.8</ele>
        <time>2014-08-29T12:29:03Z</time>
      </trkpt>
      <trkpt lat="45.17296" lon="5.57826">
        <ele>1473</ele>
        <time>2014-08-29T12:29:08Z</time>
      </trkpt>
      <trkpt lat="45.1728" lon="5.57832">
        <ele>1471.7</ele>
        <time>2014-08-29T12:29:17Z</time>
      </trkpt>
      <trkpt lat="45.17276" lon="5.57838">
        <ele>1472.4</ele>
        <time>2014-08-29T12:33:23Z</time>
      </trkpt>
      <trkpt lat="45.17247" lon="5.57851">
        <ele>1470.1</ele>
        <time>2014-08-29T12:33:33Z</time>
      </trkpt>
      <trkpt lat="45.17205" lon="5.5784">
        <ele>1466.4</ele>
        <time>2014-08-29T12:33:40Z</time>
      </trkpt>
      <trkpt lat="45.17172" lon="5.57844">
        <ele>1467.1</ele>
        <time>2014-08-29T12:33:46Z</time>
      </trkpt>
      <trkpt lat="45.17147" lon="5.57838">
        <ele>1466.5</ele>
        <time>2014-08-29T12:33:51Z</time>
      </trkpt>
      <trkpt lat="45.17116" lon="5.57847">
        <ele>1473</ele>
        <time>2014-08-29T12:33:59Z</time>
      </trkpt>
      <trkpt lat="45.1704" lon="5.57813">
        <ele>1469.7</ele>
        <time>2014-08-29T12:34:21Z</time>
      </trkpt>
      <trkpt lat="45.16996" lon="5.57807">
        <ele>1472.4</ele>
        <time>2014-08-29T12:34:34Z</time>
      </trkpt>
      <trkpt lat="45.1696" lon="5.57818">
        <ele>1476.7</ele>
        <time>2014-08-29T12:34:43Z</time>
      </trkpt>
      <trkpt lat="45.16863" lon="5.57803">
        <ele>1475.8</ele>
        <time>2014-08-29T12:34:59Z</time>
      </trkpt>
      <trkpt lat="45.16852" lon="5.57797">
        <ele>1475.3</ele>
        <time>2014-08-29T12:35:01Z</time>
      </trkpt>
      <trkpt lat="45.16823" lon="5.57742">
        <ele>1461.8</ele>
        <time>2014-08-29T12:35:07Z</time>
      </trkpt>
      <trkpt lat="45.16778" lon="5.57712">
        <ele>1455.7</ele>
        <time>2014-08-29T12:35:13Z</time>
      </trkpt>
      <trkpt lat="45.1669" lon="5.57683">
        <ele>1449.5</ele>
        <time>2014-08-29T12:35:25Z</time>
      </trkpt>
      <trkpt lat="45.16636" lon="5.57688">
        <ele>1449.8</ele>
        <time>2014-08-29T12:35:36Z</time>
      </trkpt>
      <trkpt lat="45.16564" lon="5.57713">
        <ele>1460.4</ele>
        <time>2014-08-29T12:35:54Z</time>
      </trkpt>
      <trkpt lat="45.16557" lon="5.5771">
        <ele>1461.3</ele>
        <time>2014-08-29T12:35:56Z</time>
      </trkpt>
      <trkpt lat="45.16532" lon="5.57674">
        <ele>1458.3</ele>
        <time>2014-08-29T12:36:17Z</time>
      </trkpt>
      <trkpt lat="45.16533" lon="5.5766">
        <ele>1454.8</ele>
        <time>2014-08-29T12:41:00Z</time>
      </trkpt>
      <trkpt lat="45.16529" lon="5.57649">
        <ele>1453.8</ele>
        <time>2014-08-29T12:41:02Z</time>
      </trkpt>
      <trkpt lat="45.16488" lon="5.57593">
        <ele>1461.2</ele>
        <time>2014-08-29T12:41:14Z</time>
      </trkpt>
      <trkpt lat="45.16483" lon="5.57591">
        <ele>1463.7</ele>
        <time>2014-08-29T12:41:20Z</time>
      </trkpt>
      <trkpt lat="45.16486" lon="5.57597">
        <ele>1463.1</ele>
        <time>2014-08-29T12:41:24Z</time>
      </trkpt>
      <trkpt lat="45.16497" lon="5.57606">
        <ele>1456.8</ele>
        <time>2014-08-29T12:41:34Z</time>
      </trkpt>
      <trkpt lat="45.16511" lon="5.57598">
        <ele>1449.8</ele>
        <time>2014-08-29T12:41:52Z</time>
      </trkpt>
      <trkpt lat="45.16549" lon="5.57599">
        <ele>1437.3</ele>
        <time>2014-08-29T12:50:30Z</time>
      </trkpt>
      <trkpt lat="45.16548" lon="5.57582">
        <ele>1434</ele>
        <time>2014-08-29T12:50:34Z</time>
      </trkpt>
      <trkpt lat="45.16541" lon="5.57571">
        <ele>1435.1</ele>
        <time>2014-08-29T12:50:38Z</time>
      </trkpt>
      <trkpt lat="45.16542" lon="5.57569">
        <ele>1434.4</ele>
        <time>2014-08-29T12:50:40Z</time>
      </trkpt>
      <trkpt lat="45.16542" lon="5.57573">
        <ele>1434.8</ele>
        <time>2014-08-29T12:50:45Z</time>
      </trkpt>
      <trkpt lat="45.16546" lon="5.57575">
        <ele>1433.7</ele>
        <time>2014-08-29T12:50:47Z</time>
      </trkpt>
      <trkpt lat="45.16556" lon="5.57575">
        <ele>1430.2</ele>
        <time>2014-08-29T12:50:50Z</time>
      </trkpt>
      <trkpt lat="45.16576" lon="5.57589">
        <ele>1425.7</ele>
        <time>2014-08-29T12:50:55Z</time>
      </trkpt>
      <trkpt lat="45.16582" lon="5.57588">
        <ele>1423.5</ele>
        <time>2014-08-29T12:50:58Z</time>
      </trkpt>
      <trkpt lat="45.16584" lon="5.57585">
        <ele>1422.4</ele>
        <time>2014-08-29T12:50:59Z</time>
      </trkpt>
      <trkpt lat="45.16581" lon="5.57551">
        <ele>1416.5</ele>
        <time>2014-08-29T12:51:08Z</time>
      </trkpt>
      <trkpt lat="45.16583" lon="5.57553">
        <ele>1416.2</ele>
        <time>2014-08-29T12:51:10Z</time>
      </trkpt>
      <trkpt lat="45.16584" lon="5.57567">
        <ele>1418.5</ele>
        <time>2014-08-29T12:51:14Z</time>
      </trkpt>
      <trkpt lat="45.16593" lon="5.57549">
        <ele>1414.1</ele>
        <time>2014-08-29T12:51:22Z</time>
      </trkpt>
      <trkpt lat="45.16592" lon="5.57535">
        <ele>1411.1</ele>
        <time>2014-08-29T12:51:24Z</time>
      </trkpt>
      <trkpt lat="45.16583" lon="5.5751">
        <ele>1407.2</ele>
        <time>2014-08-29T12:51:30Z</time>
      </trkpt>
      <trkpt lat="45.16581" lon="5.57511">
        <ele>1408.5</ele>
        <time>2014-08-29T12:51:33Z</time>
      </trkpt>
      <trkpt lat="45.16582" lon="5.57515">
        <ele>1408.7</ele>
        <time>2014-08-29T12:51:37Z</time>
      </trkpt>
      <trkpt lat="45.16585" lon="5.57267">
        <ele>1380.6</ele>
        <time>2014-08-29T12:52:21Z</time>
      </trkpt>
      <trkpt lat="45.16608" lon="5.57199">
        <ele>1363.4</ele>
        <time>2014-08-29T12:52:37Z</time>
      </trkpt>
      <trkpt lat="45.16644" lon="5.57289">
        <ele>1351.6</ele>
        <time>2014-08-29T12:53:05Z</time>
      </trkpt>
      <trkpt lat="45.16647" lon="5.5729">
        <ele>1350.3</ele>
        <time>2014-08-29T12:53:06Z</time>
      </trkpt>
      <trkpt lat="45.1665" lon="5.57288">
        <ele>1348.9</ele>
        <time>2014-08-29T12:53:08Z</time>
      </trkpt>
      <trkpt lat="45.16661" lon="5.57142">
        <ele>1327.2</ele>
        <time>2014-08-29T12:53:40Z</time>
      </trkpt>
      <trkpt lat="45.16679" lon="5.57179">
        <ele>1323.7</ele>
        <time>2014-08-29T12:53:52Z</time>
      </trkpt>
      <trkpt lat="45.16681" lon="5.57177">
        <ele>1322.4</ele>
        <time>2014-08-29T12:53:54Z</time>
      </trkpt>
      <trkpt lat="45.16718" lon="5.56893">
        <ele>1293.9</ele>
        <time>2014-08-29T12:54:38Z</time>
      </trkpt>
      <trkpt lat="45.1674" lon="5.56862">
        <ele>1285</ele>
        <time>2014-08-29T12:54:44Z</time>
      </trkpt>
      <trkpt lat="45.16743" lon="5.56865">
        <ele>1282.5</ele>
        <time>2014-08-29T12:54:47Z</time>
      </trkpt>
      <trkpt lat="45.16749" lon="5.56976">
        <ele>1268.9</ele>
        <time>2014-08-29T12:55:01Z</time>
      </trkpt>
      <trkpt lat="45.16754" lon="5.56985">
        <ele>1266.3</ele>
        <time>2014-08-29T12:55:04Z</time>
      </trkpt>
      <trkpt lat="45.1676" lon="5.56989">
        <ele>1263.3</ele>
        <time>2014-08-29T12:55:07Z</time>
      </trkpt>
      <trkpt lat="45.16763" lon="5.56987">
        <ele>1261.6</ele>
        <time>2014-08-29T12:55:09Z</time>
      </trkpt>
      <trkpt lat="45.16838" lon="5.56801">
        <ele>1232.6</ele>
        <time>2014-08-29T12:55:46Z</time>
      </trkpt>
      <trkpt lat="45.1684" lon="5.5678">
        <ele>1234.2</ele>
        <time>2014-08-29T12:55:57Z</time>
      </trkpt>
      <trkpt lat="45.16856" lon="5.56759">
        <ele>1228.8</ele>
        <time>2014-08-29T12:56:10Z</time>
      </trkpt>
      <trkpt lat="45.16861" lon="5.56735">
        <ele>1229.1</ele>
        <time>2014-08-29T12:56:25Z</time>
      </trkpt>
      <trkpt lat="45.16853" lon="5.56863">
        <ele>1221.2</ele>
        <time>2014-08-29T12:56:43Z</time>
      </trkpt>
      <trkpt lat="45.16871" lon="5.56935">
        <ele>1213.6</ele>
        <time>2014-08-29T12:56:54Z</time>
      </trkpt>
      <trkpt lat="45.16878" lon="5.56942">
        <ele>1212.3</ele>
        <time>2014-08-29T12:56:57Z</time>
      </trkpt>
      <trkpt lat="45.16923" lon="5.56922">
        <ele>1200.7</ele>
        <time>2014-08-29T12:57:08Z</time>
      </trkpt>
      <trkpt lat="45.16929" lon="5.56928">
        <ele>1204</ele>
        <time>2014-08-29T12:57:14Z</time>
      </trkpt>
      <trkpt lat="45.16928" lon="5.56916">
        <ele>1202.1</ele>
        <time>2014-08-29T12:57:17Z</time>
      </trkpt>
      <trkpt lat="45.16926" lon="5.56911">
        <ele>1201</ele>
        <time>2014-08-29T12:57:18Z</time>
      </trkpt>
      <trkpt lat="45.16931" lon="5.56902">
        <ele>1203</ele>
        <time>2014-08-29T12:57:21Z</time>
      </trkpt>
      <trkpt lat="45.16894" lon="5.56908">
        <ele>1204.5</ele>
        <time>2014-08-29T12:57:54Z</time>
      </trkpt>
      <trkpt lat="45.16894" lon="5.5691">
        <ele>1204.5</ele>
        <time>2014-08-29T13:11:31Z</time>
      </trkpt>
      <trkpt lat="45.16929" lon="5.5677">
        <ele>1201.9</ele>
        <time>2014-08-29T13:11:47Z</time>
      </trkpt>
      <trkpt lat="45.16926" lon="5.56734">
        <ele>1201.2</ele>
        <time>2014-08-29T13:11:51Z</time>
      </trkpt>
      <trkpt lat="45.16943" lon="5.56661">
        <ele>1196.1</ele>
        <time>2014-08-29T13:11:58Z</time>
      </trkpt>
      <trkpt lat="45.16959" lon="5.56629">
        <ele>1191.5</ele>
        <time>2014-08-29T13:12:01Z</time>
      </trkpt>
      <trkpt lat="45.16986" lon="5.56598">
        <ele>1175.7</ele>
        <time>2014-08-29T13:12:06Z</time>
      </trkpt>
      <trkpt lat="45.17072" lon="5.5614">
        <ele>1120.7</ele>
        <time>2014-08-29T13:12:51Z</time>
      </trkpt>
      <trkpt lat="45.17069" lon="5.56129">
        <ele>1120.5</ele>
        <time>2014-08-29T13:12:54Z</time>
      </trkpt>
      <trkpt lat="45.17062" lon="5.56128">
        <ele>1120.7</ele>
        <time>2014-08-29T13:13:03Z</time>
      </trkpt>
      <trkpt lat="45.17067" lon="5.56135">
        <ele>1120.7</ele>
        <time>2014-08-29T13:13:28Z</time>
      </trkpt>
      <trkpt lat="45.17063" lon="5.56129">
        <ele>1120.7</ele>
        <time>2014-08-29T13:13:38Z</time>
      </trkpt>
      <trkpt lat="45.17062" lon="5.56134">
        <ele>1120.9</ele>
        <time>2014-08-29T13:13:45Z</time>
      </trkpt>
      <trkpt lat="45.17072" lon="5.56131">
        <ele>1120.5</ele>
        <time>2014-08-29T13:13:59Z</time>
      </trkpt>
      <trkpt lat="45.17108" lon="5.56087">
        <ele>1117.6</ele>
        <time>2014-08-29T13:14:08Z</time>
      </trkpt>
      <trkpt lat="45.17304" lon="5.55977">
        <ele>1102.6</ele>
        <time>2014-08-29T13:14:35Z</time>
      </trkpt>
      <trkpt lat="45.17311" lon="5.55975">
        <ele>1101.9</ele>
        <time>2014-08-29T13:14:36Z</time>
      </trkpt>
      <trkpt lat="45.17319" lon="5.55977">
        <ele>1101.4</ele>
        <time>2014-08-29T13:14:37Z</time>
      </trkpt>
      <trkpt lat="45.1734" lon="5.55996">
        <ele>1101.4</ele>
        <time>2014-08-29T13:14:40Z</time>
      </trkpt>
      <trkpt lat="45.17363" lon="5.56034">
        <ele>1101.1</ele>
        <time>2014-08-29T13:14:44Z</time>
      </trkpt>
      <trkpt lat="45.17375" lon="5.56045">
        <ele>1100.8</ele>
        <time>2014-08-29T13:14:46Z</time>
      </trkpt>
      <trkpt lat="45.17386" lon="5.56043">
        <ele>1100.3</ele>
        <time>2014-08-29T13:14:48Z</time>
      </trkpt>
      <trkpt lat="45.1739" lon="5.56029">
        <ele>1099.9</ele>
        <time>2014-08-29T13:14:50Z</time>
      </trkpt>
      <trkpt lat="45.17348" lon="5.5577">
        <ele>1091.2</ele>
        <time>2014-08-29T13:15:16Z</time>
      </trkpt>
      <trkpt lat="45.17402" lon="5.55608">
        <ele>1079.1</ele>
        <time>2014-08-29T13:15:37Z</time>
      </trkpt>
      <trkpt lat="45.17499" lon="5.55479">
        <ele>1066.5</ele>
        <time>2014-08-29T13:15:50Z</time>
      </trkpt>
      <trkpt lat="45.17517" lon="5.55394">
        <ele>1065.4</ele>
        <time>2014-08-29T13:15:57Z</time>
      </trkpt>
      <trkpt lat="45.17516" lon="5.55188">
        <ele>1065.2</ele>
        <time>2014-08-29T13:16:18Z</time>
      </trkpt>
      <trkpt lat="45.17576" lon="5.5503">
        <ele>1056</ele>
        <time>2014-08-29T13:16:40Z</time>
      </trkpt>
      <trkpt lat="45.1757" lon="5.55007">
        <ele>1054.8</ele>
        <time>2014-08-29T13:16:43Z</time>
      </trkpt>
      <trkpt lat="45.17511" lon="5.54899">
        <ele>1054.3</ele>
        <time>2014-08-29T13:16:57Z</time>
      </trkpt>
      <trkpt lat="45.17506" lon="5.54857">
        <ele>1053.4</ele>
        <time>2014-08-29T13:17:01Z</time>
      </trkpt>
      <trkpt lat="45.17528" lon="5.54679">
        <ele>1048.8</ele>
        <time>2014-08-29T13:17:22Z</time>
      </trkpt>
      <trkpt lat="45.17657" lon="5.5441">
        <ele>1045.8</ele>
        <time>2014-08-29T13:17:58Z</time>
      </trkpt>
      <trkpt lat="45.17655" lon="5.54405">
        <ele>1045.9</ele>
        <time>2014-08-29T13:17:59Z</time>
      </trkpt>
      <trkpt lat="45.17615" lon="5.54365">
        <ele>1045.8</ele>
        <time>2014-08-29T13:18:17Z</time>
      </trkpt>
      <trkpt lat="45.17604" lon="5.54328">
        <ele>1046.5</ele>
        <time>2014-08-29T13:18:26Z</time>
      </trkpt>
      <trkpt lat="45.17593" lon="5.54319">
        <ele>1046.2</ele>
        <time>2014-08-29T13:18:30Z</time>
      </trkpt>
      <trkpt lat="45.17593" lon="5.54313">
        <ele>1046.2</ele>
        <time>2014-08-29T13:18:31Z</time>
      </trkpt>
      <trkpt lat="45.17602" lon="5.54282">
        <ele>1046.3</ele>
        <time>2014-08-29T13:18:37Z</time>
      </trkpt>
      <trkpt lat="45.17598" lon="5.54271">
        <ele>1046.2</ele>
        <time>2014-08-29T13:18:39Z</time>
      </trkpt>
      <trkpt lat="45.17592" lon="5.54263">
        <ele>1046.1</ele>
        <time>2014-08-29T13:18:41Z</time>
      </trkpt>
      <trkpt lat="45.17586" lon="5.54242">
        <ele>1045.8</ele>
        <time>2014-08-29T13:18:44Z</time>
      </trkpt>
      <trkpt lat="45.17588" lon="5.54224">
        <ele>1045.1</ele>
        <time>2014-08-29T13:18:47Z</time>
      </trkpt>
      <trkpt lat="45.17581" lon="5.54215">
        <ele>1044.7</ele>
        <time>2014-08-29T13:18:50Z</time>
      </trkpt>
      <trkpt lat="45.17563" lon="5.54213">
        <ele>1044.6</ele>
        <time>2014-08-29T13:18:56Z</time>
      </trkpt>
      <trkpt lat="45.17528" lon="5.54194">
        <ele>1044.4</ele>
        <time>2014-08-29T13:19:06Z</time>
      </trkpt>
      <trkpt lat="45.17509" lon="5.54194">
        <ele>1044.6</ele>
        <time>2014-08-29T13:19:11Z</time>
      </trkpt>
      <trkpt lat="45.17501" lon="5.54203">
        <ele>1044.6</ele>
        <time>2014-08-29T13:19:16Z</time>
      </trkpt>
      <trkpt lat="45.17496" lon="5.54201">
        <ele>1044.5</ele>
        <time>2014-08-29T13:19:32Z</time>
      </trkpt>
      <trkpt lat="45.17497" lon="5.54204">
        <ele>1044.5</ele>
        <time>2014-08-29T13:19:34Z</time>
      </trkpt>
      <trkpt lat="45.17501" lon="5.54198">
        <ele>1044.6</ele>
        <time>2014-08-29T13:22:26Z</time>
      </trkpt>
      <trkpt lat="45.17496" lon="5.54198">
        <ele>1044.5</ele>
        <time>2014-08-29T13:22:30Z</time>
      </trkpt>
      <trkpt lat="45.17507" lon="5.54197">
        <ele>1044.6</ele>
        <time>2014-08-29T13:58:51Z</time>
      </trkpt>
      <trkpt lat="45.17522" lon="5.54201">
        <ele>1044.5</ele>
        <time>2014-08-29T13:59:00Z</time>
      </trkpt>
      <trkpt lat="45.17534" lon="5.54199">
        <ele>1044.4</ele>
        <time>2014-08-29T13:59:07Z</time>
      </trkpt>
      <trkpt lat="45.17567" lon="5.54215">
        <ele>1044.7</ele>
        <time>2014-08-29T13:59:20Z</time>
      </trkpt>
      <trkpt lat="45.17618" lon="5.54216">
        <ele>1045.2</ele>
        <time>2014-08-29T13:59:34Z</time>
      </trkpt>
      <trkpt lat="45.17726" lon="5.54244">
        <ele>1046.9</ele>
        <time>2014-08-29T14:00:07Z</time>
      </trkpt>
      <trkpt lat="45.17848" lon="5.5396">
        <ele>1048.3</ele>
        <time>2014-08-29T14:01:03Z</time>
      </trkpt>
      <trkpt lat="45.1789" lon="5.53927">
        <ele>1047.8</ele>
        <time>2014-08-29T14:01:13Z</time>
      </trkpt>
      <trkpt lat="45.17899" lon="5.53925">
        <ele>1047.9</ele>
        <time>2014-08-29T14:01:15Z</time>
      </trkpt>
      <trkpt lat="45.17929" lon="5.53925">
        <ele>1049</ele>
        <time>2014-08-29T14:01:22Z</time>
      </trkpt>
      <trkpt lat="45.17945" lon="5.53932">
        <ele>1050.1</ele>
        <time>2014-08-29T14:01:26Z</time>
      </trkpt>
      <trkpt lat="45.1802" lon="5.53989">
        <ele>1058.2</ele>
        <time>2014-08-29T14:01:54Z</time>
      </trkpt>
      <trkpt lat="45.18029" lon="5.5399">
        <ele>1058.7</ele>
        <time>2014-08-29T14:01:57Z</time>
      </trkpt>
      <trkpt lat="45.18045" lon="5.53983">
        <ele>1059.2</ele>
        <time>2014-08-29T14:02:04Z</time>
      </trkpt>
      <trkpt lat="45.18058" lon="5.53948">
        <ele>1057.9</ele>
        <time>2014-08-29T14:02:34Z</time>
      </trkpt>
      <trkpt lat="45.18042" lon="5.53983">
        <ele>1059</ele>
        <time>2014-08-29T14:03:41Z</time>
      </trkpt>
      <trkpt lat="45.18131" lon="5.53771">
        <ele>1061.3</ele>
        <time>2014-08-29T14:04:49Z</time>
      </trkpt>
      <trkpt lat="45.1841" lon="5.53728">
        <ele>1073.7</ele>
        <time>2014-08-29T14:06:13Z</time>
      </trkpt>
      <trkpt lat="45.18475" lon="5.53628">
        <ele>1077.5</ele>
        <time>2014-08-29T14:06:51Z</time>
      </trkpt>
      <trkpt lat="45.18575" lon="5.53593">
        <ele>1091.9</ele>
        <time>2014-08-29T14:07:39Z</time>
      </trkpt>
      <trkpt lat="45.18581" lon="5.53586">
        <ele>1093.5</ele>
        <time>2014-08-29T14:07:43Z</time>
      </trkpt>
      <trkpt lat="45.18613" lon="5.5349">
        <ele>1109.8</ele>
        <time>2014-08-29T14:08:18Z</time>
      </trkpt>
      <trkpt lat="45.18621" lon="5.53485">
        <ele>1111.6</ele>
        <time>2014-08-29T14:08:23Z</time>
      </trkpt>
      <trkpt lat="45.18639" lon="5.5349">
        <ele>1114.7</ele>
        <time>2014-08-29T14:08:34Z</time>
      </trkpt>
      <trkpt lat="45.18647" lon="5.53497">
        <ele>1115.7</ele>
        <time>2014-08-29T14:08:39Z</time>
      </trkpt>
      <trkpt lat="45.18777" lon="5.53557">
        <ele>1128.2</ele>
        <time>2014-08-29T14:09:47Z</time>
      </trkpt>
      <trkpt lat="45.18794" lon="5.53558">
        <ele>1131.1</ele>
        <time>2014-08-29T14:09:56Z</time>
      </trkpt>
      <trkpt lat="45.18807" lon="5.53552">
        <ele>1134.4</ele>
        <time>2014-08-29T14:10:02Z</time>
      </trkpt>
      <trkpt lat="45.18817" lon="5.53542">
        <ele>1138.3</ele>
        <time>2014-08-29T14:10:08Z</time>
      </trkpt>
      <trkpt lat="45.18843" lon="5.53492">
        <ele>1152</ele>
        <time>2014-08-29T14:10:29Z</time>
      </trkpt>
      <trkpt lat="45.18856" lon="5.53488">
        <ele>1154.6</ele>
        <time>2014-08-29T14:10:34Z</time>
      </trkpt>
      <trkpt lat="45.18864" lon="5.5349">
        <ele>1155.5</ele>
        <time>2014-08-29T14:10:38Z</time>
      </trkpt>
      <trkpt lat="45.18871" lon="5.53499">
        <ele>1155</ele>
        <time>2014-08-29T14:10:42Z</time>
      </trkpt>
      <trkpt lat="45.18888" lon="5.53551">
        <ele>1149.4</ele>
        <time>2014-08-29T14:11:01Z</time>
      </trkpt>
      <trkpt lat="45.18895" lon="5.53559">
        <ele>1149.3</ele>
        <time>2014-08-29T14:11:06Z</time>
      </trkpt>
      <trkpt lat="45.18908" lon="5.53564">
        <ele>1151.1</ele>
        <time>2014-08-29T14:11:13Z</time>
      </trkpt>
      <trkpt lat="45.18925" lon="5.53564">
        <ele>1154.1</ele>
        <time>2014-08-29T14:11:21Z</time>
      </trkpt>
      <trkpt lat="45.18968" lon="5.53551">
        <ele>1161.8</ele>
        <time>2014-08-29T14:11:43Z</time>
      </trkpt>
      <trkpt lat="45.18992" lon="5.53536">
        <ele>1167.2</ele>
        <time>2014-08-29T14:11:56Z</time>
      </trkpt>
      <trkpt lat="45.19015" lon="5.53534">
        <ele>1172.2</ele>
        <time>2014-08-29T14:12:07Z</time>
      </trkpt>
      <trkpt lat="45.1902" lon="5.53537">
        <ele>1173.1</ele>
        <time>2014-08-29T14:12:10Z</time>
      </trkpt>
      <trkpt lat="45.19089" lon="5.53654">
        <ele>1174.5</ele>
        <time>2014-08-29T14:13:00Z</time>
      </trkpt>
      <trkpt lat="45.19095" lon="5.53658">
        <ele>1175.1</ele>
        <time>2014-08-29T14:13:04Z</time>
      </trkpt>
      <trkpt lat="45.19171" lon="5.53648">
        <ele>1189.5</ele>
        <time>2014-08-29T14:13:43Z</time>
      </trkpt>
      <trkpt lat="45.19206" lon="5.53655">
        <ele>1193.6</ele>
        <time>2014-08-29T14:14:00Z</time>
      </trkpt>
      <trkpt lat="45.19269" lon="5.53694">
        <ele>1195.9</ele>
        <time>2014-08-29T14:14:31Z</time>
      </trkpt>
      <trkpt lat="45.19342" lon="5.537">
        <ele>1207.8</ele>
        <time>2014-08-29T14:15:06Z</time>
      </trkpt>
      <trkpt lat="45.19358" lon="5.53698">
        <ele>1210.6</ele>
        <time>2014-08-29T14:15:13Z</time>
      </trkpt>
      <trkpt lat="45.19382" lon="5.53685">
        <ele>1216.4</ele>
        <time>2014-08-29T14:15:25Z</time>
      </trkpt>
      <trkpt lat="45.19399" lon="5.53686">
        <ele>1218.8</ele>
        <time>2014-08-29T14:15:33Z</time>
      </trkpt>
      <trkpt lat="45.19426" lon="5.53695">
        <ele>1220.7</ele>
        <time>2014-08-29T14:15:46Z</time>
      </trkpt>
      <trkpt lat="45.19507" lon="5.53699">
        <ele>1229.7</ele>
        <time>2014-08-29T14:16:25Z</time>
      </trkpt>
      <trkpt lat="45.19521" lon="5.53706">
        <ele>1229.7</ele>
        <time>2014-08-29T14:16:32Z</time>
      </trkpt>
      <trkpt lat="45.19538" lon="5.53708">
        <ele>1230.8</ele>
        <time>2014-08-29T14:16:40Z</time>
      </trkpt>
      <trkpt lat="45.19582" lon="5.53674">
        <ele>1237.3</ele>
        <time>2014-08-29T14:17:03Z</time>
      </trkpt>
      <trkpt lat="45.19621" lon="5.53669">
        <ele>1243.7</ele>
        <time>2014-08-29T14:17:22Z</time>
      </trkpt>
      <trkpt lat="45.19714" lon="5.53718">
        <ele>1253.7</ele>
        <time>2014-08-29T14:18:11Z</time>
      </trkpt>
      <trkpt lat="45.1974" lon="5.53741">
        <ele>1254.8</ele>
        <time>2014-08-29T14:18:25Z</time>
      </trkpt>
      <trkpt lat="45.19753" lon="5.53748">
        <ele>1255.7</ele>
        <time>2014-08-29T14:18:32Z</time>
      </trkpt>
      <trkpt lat="45.20068" lon="5.53733">
        <ele>1301</ele>
        <time>2014-08-29T14:21:18Z</time>
      </trkpt>
      <trkpt lat="45.2009" lon="5.53757">
        <ele>1302.6</ele>
        <time>2014-08-29T14:21:30Z</time>
      </trkpt>
      <trkpt lat="45.20112" lon="5.53804">
        <ele>1304.8</ele>
        <time>2014-08-29T14:21:51Z</time>
      </trkpt>
      <trkpt lat="45.2013" lon="5.53819">
        <ele>1306.3</ele>
        <time>2014-08-29T14:22:03Z</time>
      </trkpt>
      <trkpt lat="45.20148" lon="5.5382">
        <ele>1308.9</ele>
        <time>2014-08-29T14:22:13Z</time>
      </trkpt>
      <trkpt lat="45.20157" lon="5.53817">
        <ele>1310.6</ele>
        <time>2014-08-29T14:22:18Z</time>
      </trkpt>
      <trkpt lat="45.20167" lon="5.53809">
        <ele>1313.6</ele>
        <time>2014-08-29T14:22:24Z</time>
      </trkpt>
      <trkpt lat="45.20206" lon="5.53808">
        <ele>1319.6</ele>
        <time>2014-08-29T14:22:45Z</time>
      </trkpt>
      <trkpt lat="45.20205" lon="5.53806">
        <ele>1319.9</ele>
        <time>2014-08-29T14:22:47Z</time>
      </trkpt>
      <trkpt lat="45.20238" lon="5.53815">
        <ele>1322.6</ele>
        <time>2014-08-29T14:33:50Z</time>
      </trkpt>
      <trkpt lat="45.20249" lon="5.53832">
        <ele>1320.3</ele>
        <time>2014-08-29T14:33:57Z</time>
      </trkpt>
      <trkpt lat="45.20255" lon="5.53862">
        <ele>1318</ele>
        <time>2014-08-29T14:34:08Z</time>
      </trkpt>
      <trkpt lat="45.20264" lon="5.53873">
        <ele>1318.6</ele>
        <time>2014-08-29T14:34:14Z</time>
      </trkpt>
      <trkpt lat="45.2029" lon="5.53887">
        <ele>1322.9</ele>
        <time>2014-08-29T14:34:31Z</time>
      </trkpt>
      <trkpt lat="45.20317" lon="5.53889">
        <ele>1328.4</ele>
        <time>2014-08-29T14:34:46Z</time>
      </trkpt>
      <trkpt lat="45.20327" lon="5.53899">
        <ele>1329.6</ele>
        <time>2014-08-29T14:34:53Z</time>
      </trkpt>
      <trkpt lat="45.20336" lon="5.53915">
        <ele>1329.8</ele>
        <time>2014-08-29T14:35:03Z</time>
      </trkpt>
      <trkpt lat="45.2033" lon="5.5394">
        <ele>1331.7</ele>
        <time>2014-08-29T14:36:00Z</time>
      </trkpt>
      <trkpt lat="45.20282" lon="5.54026">
        <ele>1336.8</ele>
        <time>2014-08-29T14:36:34Z</time>
      </trkpt>
      <trkpt lat="45.20269" lon="5.5404">
        <ele>1337.8</ele>
        <time>2014-08-29T14:36:41Z</time>
      </trkpt>
      <trkpt lat="45.20089" lon="5.5408">
        <ele>1344.9</ele>
        <time>2014-08-29T14:37:29Z</time>
      </trkpt>
      <trkpt lat="45.20078" lon="5.54077">
        <ele>1344.2</ele>
        <time>2014-08-29T14:37:31Z</time>
      </trkpt>
      <trkpt lat="45.20035" lon="5.54041">
        <ele>1334.9</ele>
        <time>2014-08-29T14:37:41Z</time>
      </trkpt>
      <trkpt lat="45.20016" lon="5.5404">
        <ele>1335</ele>
        <time>2014-08-29T14:37:45Z</time>
      </trkpt>
      <trkpt lat="45.19852" lon="5.54141">
        <ele>1335.9</ele>
        <time>2014-08-29T14:38:21Z</time>
      </trkpt>
      <trkpt lat="45.19831" lon="5.54161">
        <ele>1334.1</ele>
        <time>2014-08-29T14:38:26Z</time>
      </trkpt>
      <trkpt lat="45.19779" lon="5.54257">
        <ele>1328.3</ele>
        <time>2014-08-29T14:38:42Z</time>
      </trkpt>
      <trkpt lat="45.198" lon="5.54385">
        <ele>1338.9</ele>
        <time>2014-08-29T14:38:59Z</time>
      </trkpt>
      <trkpt lat="45.19798" lon="5.54399">
        <ele>1338.7</ele>
        <time>2014-08-29T14:39:01Z</time>
      </trkpt>
      <trkpt lat="45.19775" lon="5.54441">
        <ele>1334.9</ele>
        <time>2014-08-29T14:39:09Z</time>
      </trkpt>
      <trkpt lat="45.19762" lon="5.54448">
        <ele>1331.6</ele>
        <time>2014-08-29T14:41:34Z</time>
      </trkpt>
      <trkpt lat="45.1976" lon="5.54445">
        <ele>1330.8</ele>
        <time>2014-08-29T14:41:36Z</time>
      </trkpt>
      <trkpt lat="45.19762" lon="5.54428">
        <ele>1330</ele>
        <time>2014-08-29T14:41:41Z</time>
      </trkpt>
      <trkpt lat="45.19744" lon="5.54389">
        <ele>1323.9</ele>
        <time>2014-08-29T14:41:55Z</time>
      </trkpt>
      <trkpt lat="45.19726" lon="5.5438">
        <ele>1319.2</ele>
        <time>2014-08-29T14:42:16Z</time>
      </trkpt>
      <trkpt lat="45.19725" lon="5.54377">
        <ele>1318.7</ele>
        <time>2014-08-29T14:42:18Z</time>
      </trkpt>
      <trkpt lat="45.19717" lon="5.54376">
        <ele>1316.7</ele>
        <time>2014-08-29T14:42:29Z</time>
      </trkpt>
      <trkpt lat="45.19705" lon="5.54379">
        <ele>1314.1</ele>
        <time>2014-08-29T14:42:32Z</time>
      </trkpt>
      <trkpt lat="45.19695" lon="5.54379">
        <ele>1311.5</ele>
        <time>2014-08-29T14:42:35Z</time>
      </trkpt>
      <trkpt lat="45.19685" lon="5.54371">
        <ele>1308</ele>
        <time>2014-08-29T14:42:40Z</time>
      </trkpt>
      <trkpt lat="45.1967" lon="5.54367">
        <ele>1303.7</ele>
        <time>2014-08-29T14:42:54Z</time>
      </trkpt>
      <trkpt lat="45.19664" lon="5.54362">
        <ele>1301.3</ele>
        <time>2014-08-29T14:43:00Z</time>
      </trkpt>
      <trkpt lat="45.19654" lon="5.54365">
        <ele>1299.1</ele>
        <time>2014-08-29T14:43:06Z</time>
      </trkpt>
      <trkpt lat="45.19637" lon="5.54345">
        <ele>1291.4</ele>
        <time>2014-08-29T14:43:18Z</time>
      </trkpt>
      <trkpt lat="45.19605" lon="5.54341">
        <ele>1281.9</ele>
        <time>2014-08-29T14:43:27Z</time>
      </trkpt>
      <trkpt lat="45.19565" lon="5.5432">
        <ele>1269.7</ele>
        <time>2014-08-29T14:43:41Z</time>
      </trkpt>
      <trkpt lat="45.19488" lon="5.54322">
        <ele>1249.4</ele>
        <time>2014-08-29T14:44:02Z</time>
      </trkpt>
      <trkpt lat="45.1948" lon="5.54317">
        <ele>1247.1</ele>
        <time>2014-08-29T14:44:06Z</time>
      </trkpt>
      <trkpt lat="45.19482" lon="5.54322">
        <ele>1247.9</ele>
        <time>2014-08-29T14:47:10Z</time>
      </trkpt>
      <trkpt lat="45.1947" lon="5.54324">
        <ele>1245</ele>
        <time>2014-08-29T14:47:17Z</time>
      </trkpt>
      <trkpt lat="45.19427" lon="5.54301">
        <ele>1233.4</ele>
        <time>2014-08-29T14:47:26Z</time>
      </trkpt>
      <trkpt lat="45.19386" lon="5.54292">
        <ele>1224.1</ele>
        <time>2014-08-29T14:49:24Z</time>
      </trkpt>
      <trkpt lat="45.1938" lon="5.54286">
        <ele>1222.7</ele>
        <time>2014-08-29T14:49:27Z</time>
      </trkpt>
      <trkpt lat="45.19377" lon="5.54289">
        <ele>1222.1</ele>
        <time>2014-08-29T14:49:29Z</time>
      </trkpt>
      <trkpt lat="45.19306" lon="5.54299">
        <ele>1205.3</ele>
        <time>2014-08-29T14:49:42Z</time>
      </trkpt>
      <trkpt lat="45.19295" lon="5.54295">
        <ele>1202.1</ele>
        <time>2014-08-29T14:49:44Z</time>
      </trkpt>
      <trkpt lat="45.19277" lon="5.54294">
        <ele>1197</ele>
        <time>2014-08-29T14:49:47Z</time>
      </trkpt>
      <trkpt lat="45.19252" lon="5.5428">
        <ele>1188.6</ele>
        <time>2014-08-29T14:49:53Z</time>
      </trkpt>
      <trkpt lat="45.19241" lon="5.54263">
        <ele>1185.3</ele>
        <time>2014-08-29T14:49:58Z</time>
      </trkpt>
      <trkpt lat="45.1923" lon="5.54256">
        <ele>1182.4</ele>
        <time>2014-08-29T14:50:01Z</time>
      </trkpt>
      <trkpt lat="45.19223" lon="5.54257">
        <ele>1181.1</ele>
        <time>2014-08-29T14:50:04Z</time>
      </trkpt>
      <trkpt lat="45.19212" lon="5.54249">
        <ele>1177.9</ele>
        <time>2014-08-29T14:50:09Z</time>
      </trkpt>
      <trkpt lat="45.19202" lon="5.54235">
        <ele>1176.1</ele>
        <time>2014-08-29T14:50:13Z</time>
      </trkpt>
      <trkpt lat="45.19185" lon="5.54229">
        <ele>1172</ele>
        <time>2014-08-29T14:50:17Z</time>
      </trkpt>
      <trkpt lat="45.19148" lon="5.54184">
        <ele>1164.4</ele>
        <time>2014-08-29T14:52:24Z</time>
      </trkpt>
      <trkpt lat="45.19112" lon="5.54107">
        <ele>1158.4</ele>
        <time>2014-08-29T14:52:42Z</time>
      </trkpt>
      <trkpt lat="45.19111" lon="5.54026">
        <ele>1159.5</ele>
        <time>2014-08-29T14:52:54Z</time>
      </trkpt>
      <trkpt lat="45.19068" lon="5.5391">
        <ele>1151.8</ele>
        <time>2014-08-29T14:53:25Z</time>
      </trkpt>
      <trkpt lat="45.19068" lon="5.53893">
        <ele>1151.2</ele>
        <time>2014-08-29T14:53:32Z</time>
      </trkpt>
      <trkpt lat="45.19059" lon="5.53892">
        <ele>1149</ele>
        <time>2014-08-29T14:53:35Z</time>
      </trkpt>
      <trkpt lat="45.19053" lon="5.53886">
        <ele>1147.4</ele>
        <time>2014-08-29T14:53:38Z</time>
      </trkpt>
      <trkpt lat="45.19051" lon="5.53876">
        <ele>1146.7</ele>
        <time>2014-08-29T14:53:59Z</time>
      </trkpt>
      <trkpt lat="45.19053" lon="5.53871">
        <ele>1147</ele>
        <time>2014-08-29T14:54:00Z</time>
      </trkpt>
      <trkpt lat="45.19061" lon="5.53862">
        <ele>1148.6</ele>
        <time>2014-08-29T14:54:03Z</time>
      </trkpt>
      <trkpt lat="45.19066" lon="5.53852">
        <ele>1149.2</ele>
        <time>2014-08-29T14:54:05Z</time>
      </trkpt>
      <trkpt lat="45.19072" lon="5.53845">
        <ele>1150.4</ele>
        <time>2014-08-29T14:54:08Z</time>
      </trkpt>
      <trkpt lat="45.19077" lon="5.5383">
        <ele>1150.9</ele>
        <time>2014-08-29T14:54:11Z</time>
      </trkpt>
      <trkpt lat="45.19085" lon="5.53824">
        <ele>1152.6</ele>
        <time>2014-08-29T14:54:16Z</time>
      </trkpt>
      <trkpt lat="45.1909" lon="5.53802">
        <ele>1154.2</ele>
        <time>2014-08-29T14:54:21Z</time>
      </trkpt>
      <trkpt lat="45.19095" lon="5.53796">
        <ele>1155.2</ele>
        <time>2014-08-29T14:54:24Z</time>
      </trkpt>
      <trkpt lat="45.19086" lon="5.53786">
        <ele>1153.6</ele>
        <time>2014-08-29T14:54:27Z</time>
      </trkpt>
      <trkpt lat="45.19064" lon="5.53777">
        <ele>1150.6</ele>
        <time>2014-08-29T14:54:32Z</time>
      </trkpt>
      <trkpt lat="45.1905" lon="5.53783">
        <ele>1148.3</ele>
        <time>2014-08-29T14:54:36Z</time>
      </trkpt>
      <trkpt lat="45.19044" lon="5.53788">
        <ele>1147.1</ele>
        <time>2014-08-29T14:54:37Z</time>
      </trkpt>
      <trkpt lat="45.1904" lon="5.53785">
        <ele>1146.6</ele>
        <time>2014-08-29T14:54:38Z</time>
      </trkpt>
      <trkpt lat="45.19018" lon="5.53784">
        <ele>1143.5</ele>
        <time>2014-08-29T14:54:43Z</time>
      </trkpt>
      <trkpt lat="45.18993" lon="5.53774">
        <ele>1140.7</ele>
        <time>2014-08-29T14:54:50Z</time>
      </trkpt>
      <trkpt lat="45.18978" lon="5.53748">
        <ele>1140.9</ele>
        <time>2014-08-29T14:54:58Z</time>
      </trkpt>
      <trkpt lat="45.1897" lon="5.53742">
        <ele>1140.3</ele>
        <time>2014-08-29T14:55:00Z</time>
      </trkpt>
      <trkpt lat="45.18936" lon="5.53659">
        <ele>1143.1</ele>
        <time>2014-08-29T14:56:29Z</time>
      </trkpt>
      <trkpt lat="45.18915" lon="5.53643">
        <ele>1141.1</ele>
        <time>2014-08-29T14:56:34Z</time>
      </trkpt>
      <trkpt lat="45.18877" lon="5.53632">
        <ele>1135</ele>
        <time>2014-08-29T14:56:42Z</time>
      </trkpt>
      <trkpt lat="45.1879" lon="5.53565">
        <ele>1128.7</ele>
        <time>2014-08-29T14:56:56Z</time>
      </trkpt>
      <trkpt lat="45.18789" lon="5.53557">
        <ele>1130.3</ele>
        <time>2014-08-29T14:56:59Z</time>
      </trkpt>
      <trkpt lat="45.18791" lon="5.53556">
        <ele>1130.9</ele>
        <time>2014-08-29T14:57:01Z</time>
      </trkpt>
      <trkpt lat="45.18624" lon="5.53457">
        <ele>1113.8</ele>
        <time>2014-08-29T14:57:34Z</time>
      </trkpt>
      <trkpt lat="45.18621" lon="5.53452">
        <ele>1113.4</ele>
        <time>2014-08-29T14:57:35Z</time>
      </trkpt>
      <trkpt lat="45.1862" lon="5.53432">
        <ele>1114.4</ele>
        <time>2014-08-29T14:58:08Z</time>
      </trkpt>
      <trkpt lat="45.18608" lon="5.53415">
        <ele>1112</ele>
        <time>2014-08-29T14:58:14Z</time>
      </trkpt>
      <trkpt lat="45.18587" lon="5.53401">
        <ele>1107.1</ele>
        <time>2014-08-29T14:58:21Z</time>
      </trkpt>
      <trkpt lat="45.18553" lon="5.53396">
        <ele>1100</ele>
        <time>2014-08-29T14:58:32Z</time>
      </trkpt>
      <trkpt lat="45.18545" lon="5.53401">
        <ele>1098</ele>
        <time>2014-08-29T14:58:35Z</time>
      </trkpt>
      <trkpt lat="45.18538" lon="5.534">
        <ele>1096.7</ele>
        <time>2014-08-29T14:58:36Z</time>
      </trkpt>
      <trkpt lat="45.18491" lon="5.53416">
        <ele>1085.9</ele>
        <time>2014-08-29T14:58:46Z</time>
      </trkpt>
      <trkpt lat="45.18448" lon="5.53455">
        <ele>1081.4</ele>
        <time>2014-08-29T14:58:56Z</time>
      </trkpt>
      <trkpt lat="45.18422" lon="5.5357">
        <ele>1077.6</ele>
        <time>2014-08-29T15:02:13Z</time>
      </trkpt>
      <trkpt lat="45.18383" lon="5.53626">
        <ele>1070.6</ele>
        <time>2014-08-29T15:02:21Z</time>
      </trkpt>
      <trkpt lat="45.18378" lon="5.53643">
        <ele>1069.5</ele>
        <time>2014-08-29T15:02:23Z</time>
      </trkpt>
      <trkpt lat="45.18379" lon="5.5366">
        <ele>1069</ele>
        <time>2014-08-29T15:02:25Z</time>
      </trkpt>
      <trkpt lat="45.18386" lon="5.5368">
        <ele>1069.9</ele>
        <time>2014-08-29T15:02:28Z</time>
      </trkpt>
      <trkpt lat="45.18409" lon="5.53708">
        <ele>1072.9</ele>
        <time>2014-08-29T15:02:35Z</time>
      </trkpt>
      <trkpt lat="45.18412" lon="5.53716">
        <ele>1073.4</ele>
        <time>2014-08-29T15:02:37Z</time>
      </trkpt>
      <trkpt lat="45.1841" lon="5.53724">
        <ele>1073.6</ele>
        <time>2014-08-29T15:02:39Z</time>
      </trkpt>
      <trkpt lat="45.18404" lon="5.53729">
        <ele>1073.3</ele>
        <time>2014-08-29T15:02:41Z</time>
      </trkpt>
      <trkpt lat="45.18137" lon="5.53764">
        <ele>1061.4</ele>
        <time>2014-08-29T15:03:29Z</time>
      </trkpt>
      <trkpt lat="45.18125" lon="5.53775">
        <ele>1061</ele>
        <time>2014-08-29T15:03:31Z</time>
      </trkpt>
      <trkpt lat="45.18046" lon="5.53974">
        <ele>1058.7</ele>
        <time>2014-08-29T15:03:56Z</time>
      </trkpt>
      <trkpt lat="45.18038" lon="5.53984">
        <ele>1058.8</ele>
        <time>2014-08-29T15:03:58Z</time>
      </trkpt>
      <trkpt lat="45.1802" lon="5.53987">
        <ele>1058.1</ele>
        <time>2014-08-29T15:04:01Z</time>
      </trkpt>
      <trkpt lat="45.1793" lon="5.53923">
        <ele>1048.9</ele>
        <time>2014-08-29T15:04:13Z</time>
      </trkpt>
      <trkpt lat="45.17911" lon="5.53919">
        <ele>1048</ele>
        <time>2014-08-29T15:04:15Z</time>
      </trkpt>
      <trkpt lat="45.17894" lon="5.53921">
        <ele>1047.6</ele>
        <time>2014-08-29T15:04:17Z</time>
      </trkpt>
      <trkpt lat="45.17863" lon="5.5394">
        <ele>1047.7</ele>
        <time>2014-08-29T15:04:21Z</time>
      </trkpt>
      <trkpt lat="45.17815" lon="5.54003">
        <ele>1049.3</ele>
        <time>2014-08-29T15:04:31Z</time>
      </trkpt>
      <trkpt lat="45.17727" lon="5.54235">
        <ele>1046.9</ele>
        <time>2014-08-29T15:05:03Z</time>
      </trkpt>
      <trkpt lat="45.17713" lon="5.54242">
        <ele>1046.9</ele>
        <time>2014-08-29T15:05:06Z</time>
      </trkpt>
      <trkpt lat="45.17506" lon="5.54194">
        <ele>1044.6</ele>
        <time>2014-08-29T15:05:45Z</time>
      </trkpt>
      <trkpt lat="45.17501" lon="5.54197">
        <ele>1044.6</ele>
        <time>2014-08-29T15:05:53Z</time>
      </trkpt>
      <trkpt lat="45.17514" lon="5.54197">
        <ele>1044.5</ele>
        <time>2014-08-29T15:07:05Z</time>
      </trkpt>
      <trkpt lat="45.1752" lon="5.54192">
        <ele>1044.5</ele>
        <time>2014-08-29T15:07:07Z</time>
      </trkpt>
      <trkpt lat="45.17587" lon="5.5398">
        <ele>1039</ele>
        <time>2014-08-29T15:07:38Z</time>
      </trkpt>
      <trkpt lat="45.17649" lon="5.53985">
        <ele>1039.1</ele>
        <time>2014-08-29T15:07:51Z</time>
      </trkpt>
      <trkpt lat="45.17657" lon="5.53983">
        <ele>1039</ele>
        <time>2014-08-29T15:07:54Z</time>
      </trkpt>
      <trkpt lat="45.17665" lon="5.53992">
        <ele>1039</ele>
        <time>2014-08-29T15:23:31Z</time>
      </trkpt>
      <trkpt lat="45.17655" lon="5.54006">
        <ele>1039.3</ele>
        <time>2014-08-29T15:23:35Z</time>
      </trkpt>
      <trkpt lat="45.17639" lon="5.54005">
        <ele>1039.5</ele>
        <time>2014-08-29T15:23:38Z</time>
      </trkpt>
      <trkpt lat="45.17421" lon="5.53864">
        <ele>1032.6</ele>
        <time>2014-08-29T15:24:08Z</time>
      </trkpt>
      <trkpt lat="45.17413" lon="5.53869">
        <ele>1032.8</ele>
        <time>2014-08-29T15:24:10Z</time>
      </trkpt>
      <trkpt lat="45.17373" lon="5.5403">
        <ele>1036.3</ele>
        <time>2014-08-29T15:24:26Z</time>
      </trkpt>
      <trkpt lat="45.17357" lon="5.54032">
        <ele>1035.6</ele>
        <time>2014-08-29T15:24:29Z</time>
      </trkpt>
      <trkpt lat="45.16776" lon="5.53522">
        <ele>1025.6</ele>
        <time>2014-08-29T15:25:34Z</time>
      </trkpt>
      <trkpt lat="45.15014" lon="5.52567">
        <ele>996.4</ele>
        <time>2014-08-29T15:27:05Z</time>
      </trkpt>
      <trkpt lat="45.13986" lon="5.52639">
        <ele>995.2</ele>
        <time>2014-08-29T15:28:11Z</time>
      </trkpt>
      <trkpt lat="45.13958" lon="5.52634">
        <ele>993.6</ele>
        <time>2014-08-29T15:28:14Z</time>
      </trkpt>
      <trkpt lat="45.13128" lon="5.52859">
        <ele>975.4</ele>
        <time>2014-08-29T15:29:01Z</time>
      </trkpt>
      <trkpt lat="45.13115" lon="5.52854">
        <ele>975.7</ele>
        <time>2014-08-29T15:29:03Z</time>
      </trkpt>
      <trkpt lat="45.13107" lon="5.52842">
        <ele>976.1</ele>
        <time>2014-08-29T15:29:05Z</time>
      </trkpt>
      <trkpt lat="45.13098" lon="5.52798">
        <ele>976.6</ele>
        <time>2014-08-29T15:29:12Z</time>
      </trkpt>
      <trkpt lat="45.13095" lon="5.52795">
        <ele>976.7</ele>
        <time>2014-08-29T15:29:13Z</time>
      </trkpt>
      <trkpt lat="45.13063" lon="5.52806">
        <ele>977.8</ele>
        <time>2014-08-29T15:29:18Z</time>
      </trkpt>
      <trkpt lat="45.12797" lon="5.52769">
        <ele>990.2</ele>
        <time>2014-08-29T15:29:47Z</time>
      </trkpt>
      <trkpt lat="45.12727" lon="5.52718">
        <ele>991.7</ele>
        <time>2014-08-29T15:29:58Z</time>
      </trkpt>
      <trkpt lat="45.12714" lon="5.52716">
        <ele>992.3</ele>
        <time>2014-08-29T15:30:00Z</time>
      </trkpt>
      <trkpt lat="45.12642" lon="5.5279">
        <ele>991.7</ele>
        <time>2014-08-29T15:30:11Z</time>
      </trkpt>
      <trkpt lat="45.12633" lon="5.52794">
        <ele>991.7</ele>
        <time>2014-08-29T15:30:12Z</time>
      </trkpt>
      <trkpt lat="45.12595" lon="5.52825">
        <ele>989.8</ele>
        <time>2014-08-29T15:30:17Z</time>
      </trkpt>
      <trkpt lat="45.12535" lon="5.52921">
        <ele>982.9</ele>
        <time>2014-08-29T15:30:25Z</time>
      </trkpt>
      <trkpt lat="45.12481" lon="5.52975">
        <ele>979.5</ele>
        <time>2014-08-29T15:30:30Z</time>
      </trkpt>
      <trkpt lat="45.12469" lon="5.52981">
        <ele>979.7</ele>
        <time>2014-08-29T15:30:31Z</time>
      </trkpt>
      <trkpt lat="45.11591" lon="5.53189">
        <ele>964.9</ele>
        <time>2014-08-29T15:31:22Z</time>
      </trkpt>
      <trkpt lat="45.10873" lon="5.5293">
        <ele>976.6</ele>
        <time>2014-08-29T15:32:05Z</time>
      </trkpt>
      <trkpt lat="45.10853" lon="5.52933">
        <ele>979.4</ele>
        <time>2014-08-29T15:32:07Z</time>
      </trkpt>
      <trkpt lat="45.10844" lon="5.5294">
        <ele>981.6</ele>
        <time>2014-08-29T15:32:08Z</time>
      </trkpt>
      <trkpt lat="45.1083" lon="5.52966">
        <ele>986</ele>
        <time>2014-08-29T15:32:10Z</time>
      </trkpt>
      <trkpt lat="45.1081" lon="5.52984">
        <ele>988.6</ele>
        <time>2014-08-29T15:32:12Z</time>
      </trkpt>
      <trkpt lat="45.10797" lon="5.5299">
        <ele>989.6</ele>
        <time>2014-08-29T15:32:13Z</time>
      </trkpt>
      <trkpt lat="45.1077" lon="5.5299">
        <ele>990.2</ele>
        <time>2014-08-29T15:32:15Z</time>
      </trkpt>
      <trkpt lat="45.10635" lon="5.52927">
        <ele>978.7</ele>
        <time>2014-08-29T15:32:24Z</time>
      </trkpt>
      <trkpt lat="45.10611" lon="5.52934">
        <ele>977.8</ele>
        <time>2014-08-29T15:32:26Z</time>
      </trkpt>
      <trkpt lat="45.10559" lon="5.53">
        <ele>984.8</ele>
        <time>2014-08-29T15:32:31Z</time>
      </trkpt>
      <trkpt lat="45.10532" lon="5.53011">
        <ele>992.1</ele>
        <time>2014-08-29T15:32:33Z</time>
      </trkpt>
      <trkpt lat="45.10506" lon="5.53002">
        <ele>993.5</ele>
        <time>2014-08-29T15:32:35Z</time>
      </trkpt>
      <trkpt lat="45.10495" lon="5.52995">
        <ele>995.4</ele>
        <time>2014-08-29T15:32:36Z</time>
      </trkpt>
      <trkpt lat="45.10477" lon="5.5297">
        <ele>1000.4</ele>
        <time>2014-08-29T15:32:38Z</time>
      </trkpt>
      <trkpt lat="45.10473" lon="5.5289">
        <ele>993.8</ele>
        <time>2014-08-29T15:32:42Z</time>
      </trkpt>
      <trkpt lat="45.10532" lon="5.52711">
        <ele>979.2</ele>
        <time>2014-08-29T15:32:54Z</time>
      </trkpt>
      <trkpt lat="45.10529" lon="5.52703">
        <ele>979.2</ele>
        <time>2014-08-29T15:32:55Z</time>
      </trkpt>
      <trkpt lat="45.10523" lon="5.52698">
        <ele>978.8</ele>
        <time>2014-08-29T15:32:56Z</time>
      </trkpt>
      <trkpt lat="45.10441" lon="5.52672">
        <ele>979.5</ele>
        <time>2014-08-29T15:33:03Z</time>
      </trkpt>
      <trkpt lat="45.10248" lon="5.52695">
        <ele>983.8</ele>
        <time>2014-08-29T15:33:17Z</time>
      </trkpt>
      <trkpt lat="45.10234" lon="5.52708">
        <ele>984.4</ele>
        <time>2014-08-29T15:33:19Z</time>
      </trkpt>
      <trkpt lat="45.10203" lon="5.5277">
        <ele>988.6</ele>
        <time>2014-08-29T15:33:23Z</time>
      </trkpt>
      <trkpt lat="45.10181" lon="5.52791">
        <ele>991.5</ele>
        <time>2014-08-29T15:33:25Z</time>
      </trkpt>
      <trkpt lat="45.10157" lon="5.52802">
        <ele>993.1</ele>
        <time>2014-08-29T15:33:27Z</time>
      </trkpt>
      <trkpt lat="45.10136" lon="5.52802">
        <ele>994.7</ele>
        <time>2014-08-29T15:33:29Z</time>
      </trkpt>
      <trkpt lat="45.10124" lon="5.52797">
        <ele>994.3</ele>
        <time>2014-08-29T15:33:30Z</time>
      </trkpt>
      <trkpt lat="45.10109" lon="5.52784">
        <ele>991.8</ele>
        <time>2014-08-29T15:33:32Z</time>
      </trkpt>
      <trkpt lat="45.09985" lon="5.52562">
        <ele>963.6</ele>
        <time>2014-08-29T15:33:44Z</time>
      </trkpt>
      <trkpt lat="45.09933" lon="5.52529">
        <ele>961.5</ele>
        <time>2014-08-29T15:33:48Z</time>
      </trkpt>
      <trkpt lat="45.09912" lon="5.52526">
        <ele>960.9</ele>
        <time>2014-08-29T15:33:50Z</time>
      </trkpt>
      <trkpt lat="45.09888" lon="5.52546">
        <ele>962.3</ele>
        <time>2014-08-29T15:33:53Z</time>
      </trkpt>
      <trkpt lat="45.09836" lon="5.52705">
        <ele>971.6</ele>
        <time>2014-08-29T15:34:02Z</time>
      </trkpt>
      <trkpt lat="45.09793" lon="5.52745">
        <ele>985.5</ele>
        <time>2014-08-29T15:34:06Z</time>
      </trkpt>
      <trkpt lat="45.09782" lon="5.52749">
        <ele>987</ele>
        <time>2014-08-29T15:34:07Z</time>
      </trkpt>
      <trkpt lat="45.09758" lon="5.52739">
        <ele>982.9</ele>
        <time>2014-08-29T15:34:09Z</time>
      </trkpt>
      <trkpt lat="45.09694" lon="5.52626">
        <ele>955.9</ele>
        <time>2014-08-29T15:34:17Z</time>
      </trkpt>
      <trkpt lat="45.09671" lon="5.52612">
        <ele>954</ele>
        <time>2014-08-29T15:34:19Z</time>
      </trkpt>
      <trkpt lat="45.09656" lon="5.52611">
        <ele>953.1</ele>
        <time>2014-08-29T15:34:20Z</time>
      </trkpt>
      <trkpt lat="45.09572" lon="5.52669">
        <ele>957.2</ele>
        <time>2014-08-29T15:34:27Z</time>
      </trkpt>
      <trkpt lat="45.09499" lon="5.52642">
        <ele>951.1</ele>
        <time>2014-08-29T15:34:32Z</time>
      </trkpt>
      <trkpt lat="45.09458" lon="5.52612">
        <ele>946.9</ele>
        <time>2014-08-29T15:34:36Z</time>
      </trkpt>
      <trkpt lat="45.09437" lon="5.52618">
        <ele>947.6</ele>
        <time>2014-08-29T15:34:38Z</time>
      </trkpt>
      <trkpt lat="45.09343" lon="5.52716">
        <ele>953.1</ele>
        <time>2014-08-29T15:34:46Z</time>
      </trkpt>
      <trkpt lat="45.09329" lon="5.52725">
        <ele>954.4</ele>
        <time>2014-08-29T15:34:47Z</time>
      </trkpt>
      <trkpt lat="45.09287" lon="5.52737">
        <ele>962.2</ele>
        <time>2014-08-29T15:34:50Z</time>
      </trkpt>
      <trkpt lat="45.09259" lon="5.52734">
        <ele>964.3</ele>
        <time>2014-08-29T15:34:52Z</time>
      </trkpt>
      <trkpt lat="45.09236" lon="5.52715">
        <ele>966.1</ele>
        <time>2014-08-29T15:34:54Z</time>
      </trkpt>
      <trkpt lat="45.09158" lon="5.52451">
        <ele>949.6</ele>
        <time>2014-08-29T15:35:08Z</time>
      </trkpt>
      <trkpt lat="45.09139" lon="5.52431">
        <ele>949.4</ele>
        <time>2014-08-29T15:35:10Z</time>
      </trkpt>
      <trkpt lat="45.09115" lon="5.52424">
        <ele>947.4</ele>
        <time>2014-08-29T15:35:12Z</time>
      </trkpt>
      <trkpt lat="45.09092" lon="5.5243">
        <ele>945.4</ele>
        <time>2014-08-29T15:35:14Z</time>
      </trkpt>
      <trkpt lat="45.08988" lon="5.52529">
        <ele>943</ele>
        <time>2014-08-29T15:35:22Z</time>
      </trkpt>
      <trkpt lat="45.0896" lon="5.5254">
        <ele>951.9</ele>
        <time>2014-08-29T15:35:24Z</time>
      </trkpt>
      <trkpt lat="45.08932" lon="5.52537">
        <ele>957.4</ele>
        <time>2014-08-29T15:35:26Z</time>
      </trkpt>
      <trkpt lat="45.0889" lon="5.5251">
        <ele>960.6</ele>
        <time>2014-08-29T15:35:29Z</time>
      </trkpt>
      <trkpt lat="45.08821" lon="5.52421">
        <ele>944.8</ele>
        <time>2014-08-29T15:35:35Z</time>
      </trkpt>
      <trkpt lat="45.08808" lon="5.52412">
        <ele>943.1</ele>
        <time>2014-08-29T15:35:36Z</time>
      </trkpt>
      <trkpt lat="45.08764" lon="5.52399">
        <ele>943.9</ele>
        <time>2014-08-29T15:35:39Z</time>
      </trkpt>
      <trkpt lat="45.08605" lon="5.52425">
        <ele>935.3</ele>
        <time>2014-08-29T15:35:51Z</time>
      </trkpt>
      <trkpt lat="45.08587" lon="5.52422">
        <ele>933.5</ele>
        <time>2014-08-29T15:35:56Z</time>
      </trkpt>
      <trkpt lat="45.08572" lon="5.52427">
        <ele>933.2</ele>
        <time>2014-08-29T15:36:05Z</time>
      </trkpt>
      <trkpt lat="45.08396" lon="5.53088">
        <ele>961</ele>
        <time>2014-08-29T15:36:43Z</time>
      </trkpt>
      <trkpt lat="45.08214" lon="5.53258">
        <ele>949.4</ele>
        <time>2014-08-29T15:36:54Z</time>
      </trkpt>
      <trkpt lat="45.07954" lon="5.53426">
        <ele>951.6</ele>
        <time>2014-08-29T15:37:08Z</time>
      </trkpt>
      <trkpt lat="45.07775" lon="5.53686">
        <ele>964.3</ele>
        <time>2014-08-29T15:37:23Z</time>
      </trkpt>
      <trkpt lat="45.07647" lon="5.53701">
        <ele>959.3</ele>
        <time>2014-08-29T15:37:31Z</time>
      </trkpt>
      <trkpt lat="45.07637" lon="5.53707">
        <ele>960.3</ele>
        <time>2014-08-29T15:37:32Z</time>
      </trkpt>
      <trkpt lat="45.0759" lon="5.53821">
        <ele>952.1</ele>
        <time>2014-08-29T15:37:39Z</time>
      </trkpt>
      <trkpt lat="45.07319" lon="5.54044">
        <ele>957.1</ele>
        <time>2014-08-29T15:38:01Z</time>
      </trkpt>
      <trkpt lat="45.07322" lon="5.54068">
        <ele>957.3</ele>
        <time>2014-08-29T15:38:04Z</time>
      </trkpt>
      <trkpt lat="45.07338" lon="5.54079">
        <ele>954.7</ele>
        <time>2014-08-29T15:38:07Z</time>
      </trkpt>
      <trkpt lat="45.07374" lon="5.54089">
        <ele>962.7</ele>
        <time>2014-08-29T15:38:10Z</time>
      </trkpt>
      <trkpt lat="45.07384" lon="5.54097">
        <ele>964.7</ele>
        <time>2014-08-29T15:38:11Z</time>
      </trkpt>
      <trkpt lat="45.07397" lon="5.54123">
        <ele>966.3</ele>
        <time>2014-08-29T15:38:13Z</time>
      </trkpt>
      <trkpt lat="45.07399" lon="5.54139">
        <ele>965.9</ele>
        <time>2014-08-29T15:38:14Z</time>
      </trkpt>
      <trkpt lat="45.07357" lon="5.5431">
        <ele>971.9</ele>
        <time>2014-08-29T15:38:23Z</time>
      </trkpt>
      <trkpt lat="45.0731" lon="5.54376">
        <ele>977.2</ele>
        <time>2014-08-29T15:38:29Z</time>
      </trkpt>
      <trkpt lat="45.07299" lon="5.54437">
        <ele>984.9</ele>
        <time>2014-08-29T15:38:34Z</time>
      </trkpt>
      <trkpt lat="45.07385" lon="5.54623">
        <ele>970.4</ele>
        <time>2014-08-29T15:38:50Z</time>
      </trkpt>
      <trkpt lat="45.07375" lon="5.54659">
        <ele>964.9</ele>
        <time>2014-08-29T15:38:54Z</time>
      </trkpt>
      <trkpt lat="45.07355" lon="5.54676">
        <ele>963.8</ele>
        <time>2014-08-29T15:38:57Z</time>
      </trkpt>
      <trkpt lat="45.06933" lon="5.5453">
        <ele>990</ele>
        <time>2014-08-29T15:39:23Z</time>
      </trkpt>
      <trkpt lat="45.06865" lon="5.5453">
        <ele>994.7</ele>
        <time>2014-08-29T15:39:27Z</time>
      </trkpt>
      <trkpt lat="45.0664" lon="5.54634">
        <ele>979.1</ele>
        <time>2014-08-29T15:39:48Z</time>
      </trkpt>
      <trkpt lat="45.06603" lon="5.54642">
        <ele>979.5</ele>
        <time>2014-08-29T15:39:51Z</time>
      </trkpt>
      <trkpt lat="45.06397" lon="5.546">
        <ele>986.8</ele>
        <time>2014-08-29T15:40:05Z</time>
      </trkpt>
      <trkpt lat="45.06343" lon="5.54609">
        <ele>988.5</ele>
        <time>2014-08-29T15:40:09Z</time>
      </trkpt>
      <trkpt lat="45.06215" lon="5.54692">
        <ele>988.7</ele>
        <time>2014-08-29T15:40:19Z</time>
      </trkpt>
      <trkpt lat="45.06172" lon="5.54692">
        <ele>989.4</ele>
        <time>2014-08-29T15:40:22Z</time>
      </trkpt>
      <trkpt lat="45.05942" lon="5.54546">
        <ele>1000</ele>
        <time>2014-08-29T15:40:38Z</time>
      </trkpt>
      <trkpt lat="45.05354" lon="5.54507">
        <ele>1013.6</ele>
        <time>2014-08-29T15:41:13Z</time>
      </trkpt>
      <trkpt lat="45.05126" lon="5.54398">
        <ele>1022.7</ele>
        <time>2014-08-29T15:41:27Z</time>
      </trkpt>
      <trkpt lat="45.05054" lon="5.54339">
        <ele>1027.3</ele>
        <time>2014-08-29T15:41:32Z</time>
      </trkpt>
      <trkpt lat="45.05012" lon="5.54319">
        <ele>1027.3</ele>
        <time>2014-08-29T15:41:35Z</time>
      </trkpt>
      <trkpt lat="45.04622" lon="5.54322">
        <ele>1044.7</ele>
        <time>2014-08-29T15:41:58Z</time>
      </trkpt>
      <trkpt lat="45.0459" lon="5.54303">
        <ele>1046.8</ele>
        <time>2014-08-29T15:42:00Z</time>
      </trkpt>
      <trkpt lat="45.04194" lon="5.53823">
        <ele>1076.6</ele>
        <time>2014-08-29T15:42:34Z</time>
      </trkpt>
      <trkpt lat="45.03423" lon="5.53309">
        <ele>1094.8</ele>
        <time>2014-08-29T15:43:35Z</time>
      </trkpt>
      <trkpt lat="45.03392" lon="5.53277">
        <ele>1097.6</ele>
        <time>2014-08-29T15:43:39Z</time>
      </trkpt>
      <trkpt lat="45.03365" lon="5.5323">
        <ele>1097.7</ele>
        <time>2014-08-29T15:43:44Z</time>
      </trkpt>
      <trkpt lat="45.03339" lon="5.53153">
        <ele>1095.3</ele>
        <time>2014-08-29T15:43:58Z</time>
      </trkpt>
      <trkpt lat="45.03307" lon="5.52788">
        <ele>1099.8</ele>
        <time>2014-08-29T15:44:21Z</time>
      </trkpt>
      <trkpt lat="45.03303" lon="5.52779">
        <ele>1100</ele>
        <time>2014-08-29T15:44:22Z</time>
      </trkpt>
      <trkpt lat="45.03284" lon="5.52755">
        <ele>1100.8</ele>
        <time>2014-08-29T15:44:26Z</time>
      </trkpt>
      <trkpt lat="45.03268" lon="5.52747">
        <ele>1101.3</ele>
        <time>2014-08-29T15:44:28Z</time>
      </trkpt>
      <trkpt lat="45.03209" lon="5.52738">
        <ele>1103.7</ele>
        <time>2014-08-29T15:44:36Z</time>
      </trkpt>
      <trkpt lat="45.03028" lon="5.52599">
        <ele>1107.3</ele>
        <time>2014-08-29T15:44:59Z</time>
      </trkpt>
      <trkpt lat="45.02971" lon="5.52513">
        <ele>1108.3</ele>
        <time>2014-08-29T15:45:13Z</time>
      </trkpt>
      <trkpt lat="45.0297" lon="5.52507">
        <ele>1108.4</ele>
        <time>2014-08-29T15:45:15Z</time>
      </trkpt>
      <trkpt lat="45.02979" lon="5.52499">
        <ele>1108.1</ele>
        <time>2014-08-29T15:45:19Z</time>
      </trkpt>
      <trkpt lat="45.02987" lon="5.52499">
        <ele>1107.6</ele>
        <time>2014-08-29T15:45:21Z</time>
      </trkpt>
      <trkpt lat="45.03029" lon="5.52514">
        <ele>1106.8</ele>
        <time>2014-08-29T15:45:29Z</time>
      </trkpt>
      <trkpt lat="45.03039" lon="5.52512">
        <ele>1106.7</ele>
        <time>2014-08-29T15:45:32Z</time>
      </trkpt>
      <trkpt lat="45.03042" lon="5.52507">
        <ele>1106.6</ele>
        <time>2014-08-29T15:45:33Z</time>
      </trkpt>
      <trkpt lat="45.03045" lon="5.52477">
        <ele>1106.1</ele>
        <time>2014-08-29T15:45:41Z</time>
      </trkpt>
      <trkpt lat="45.03051" lon="5.52477">
        <ele>1105.9</ele>
        <time>2014-08-29T15:46:32Z</time>
      </trkpt>
      <trkpt lat="45.03048" lon="5.52478">
        <ele>1106</ele>
        <time>2014-08-29T15:46:36Z</time>
      </trkpt>
    </trkseg>
  </trk>
</gpx>